<?xml version="1.0" encoding="UTF-8" standalone="no" ?>
<gpx xmlns="http://www.topografix.com/GPX/1/1" xmlns:xsi="http://www.w3.org/2001/XMLSchema-instance" xsi:schemaLocation="http://www.topografix.com/GPX/1/1 http://www.topografix.com/GPX/1/1/gpx.xsd" version="1.1" creator="VisuGPX - https://www.visugpx.com">
  <metadata>
    <name>Rando à Chevry</name>
    <desc><![CDATA[Belle Balade emmenée par Roger pour e&s de Ste Marguerite]]></desc>
  </metadata>
  <trk>
    <name><![CDATA[2018-02-19 17:09:37]]></name>
    <trkseg>
      <trkpt lat="48.23492" lon="6.87846">
        <ele>386.59</ele>
        <time>2018-02-19T13:02:27Z</time>
      </trkpt>
      <trkpt lat="48.23452" lon="6.87833">
        <ele>407.74</ele>
        <time>2018-02-19T13:02:52Z</time>
      </trkpt>
      <trkpt lat="48.23451" lon="6.87832">
        <ele>419.27</ele>
        <time>2018-02-19T13:03:16Z</time>
      </trkpt>
      <trkpt lat="48.2345" lon="6.87836">
        <ele>423.6</ele>
        <time>2018-02-19T13:03:38Z</time>
      </trkpt>
      <trkpt lat="48.23446" lon="6.87829">
        <ele>426.48</ele>
        <time>2018-02-19T13:03:52Z</time>
      </trkpt>
      <trkpt lat="48.2344" lon="6.8782">
        <ele>427.92</ele>
        <time>2018-02-19T13:04:05Z</time>
      </trkpt>
      <trkpt lat="48.23438" lon="6.87814">
        <ele>427.92</ele>
        <time>2018-02-19T13:04:17Z</time>
      </trkpt>
      <trkpt lat="48.23434" lon="6.8781">
        <ele>426.48</ele>
        <time>2018-02-19T13:04:27Z</time>
      </trkpt>
      <trkpt lat="48.23427" lon="6.87816">
        <ele>427.92</ele>
        <time>2018-02-19T13:04:38Z</time>
      </trkpt>
      <trkpt lat="48.23416" lon="6.87827">
        <ele>426.48</ele>
        <time>2018-02-19T13:04:51Z</time>
      </trkpt>
      <trkpt lat="48.23411" lon="6.87835">
        <ele>423.12</ele>
        <time>2018-02-19T13:05:01Z</time>
      </trkpt>
      <trkpt lat="48.23409" lon="6.87837">
        <ele>422.64</ele>
        <time>2018-02-19T13:05:04Z</time>
      </trkpt>
      <trkpt lat="48.23401" lon="6.87841">
        <ele>422.64</ele>
        <time>2018-02-19T13:05:12Z</time>
      </trkpt>
      <trkpt lat="48.2339" lon="6.87842">
        <ele>422.64</ele>
        <time>2018-02-19T13:05:23Z</time>
      </trkpt>
      <trkpt lat="48.23384" lon="6.87843">
        <ele>424.08</ele>
        <time>2018-02-19T13:05:30Z</time>
      </trkpt>
      <trkpt lat="48.23381" lon="6.87843">
        <ele>424.56</ele>
        <time>2018-02-19T13:05:32Z</time>
      </trkpt>
      <trkpt lat="48.23379" lon="6.87843">
        <ele>425.04</ele>
        <time>2018-02-19T13:05:33Z</time>
      </trkpt>
      <trkpt lat="48.23372" lon="6.87841">
        <ele>426</ele>
        <time>2018-02-19T13:05:37Z</time>
      </trkpt>
      <trkpt lat="48.23358" lon="6.87838">
        <ele>426.48</ele>
        <time>2018-02-19T13:05:47Z</time>
      </trkpt>
      <trkpt lat="48.23347" lon="6.87834">
        <ele>426.96</ele>
        <time>2018-02-19T13:05:56Z</time>
      </trkpt>
      <trkpt lat="48.23343" lon="6.87833">
        <ele>426.96</ele>
        <time>2018-02-19T13:06:00Z</time>
      </trkpt>
      <trkpt lat="48.23341" lon="6.87833">
        <ele>426.96</ele>
        <time>2018-02-19T13:06:02Z</time>
      </trkpt>
      <trkpt lat="48.2334" lon="6.87833">
        <ele>426.48</ele>
        <time>2018-02-19T13:06:03Z</time>
      </trkpt>
      <trkpt lat="48.23337" lon="6.87833">
        <ele>426.48</ele>
        <time>2018-02-19T13:06:05Z</time>
      </trkpt>
      <trkpt lat="48.23336" lon="6.87832">
        <ele>426.48</ele>
        <time>2018-02-19T13:06:06Z</time>
      </trkpt>
      <trkpt lat="48.23334" lon="6.87832">
        <ele>426.48</ele>
        <time>2018-02-19T13:06:08Z</time>
      </trkpt>
      <trkpt lat="48.23333" lon="6.87833">
        <ele>426.48</ele>
        <time>2018-02-19T13:06:09Z</time>
      </trkpt>
      <trkpt lat="48.23331" lon="6.87833">
        <ele>426.48</ele>
        <time>2018-02-19T13:06:10Z</time>
      </trkpt>
      <trkpt lat="48.2333" lon="6.87832">
        <ele>426.48</ele>
        <time>2018-02-19T13:06:11Z</time>
      </trkpt>
      <trkpt lat="48.23329" lon="6.87832">
        <ele>426.48</ele>
        <time>2018-02-19T13:06:12Z</time>
      </trkpt>
      <trkpt lat="48.23324" lon="6.87831">
        <ele>426.96</ele>
        <time>2018-02-19T13:06:18Z</time>
      </trkpt>
      <trkpt lat="48.23313" lon="6.8783">
        <ele>428.89</ele>
        <time>2018-02-19T13:06:27Z</time>
      </trkpt>
      <trkpt lat="48.23309" lon="6.8783">
        <ele>429.37</ele>
        <time>2018-02-19T13:06:30Z</time>
      </trkpt>
      <trkpt lat="48.23307" lon="6.8783">
        <ele>430.33</ele>
        <time>2018-02-19T13:06:32Z</time>
      </trkpt>
      <trkpt lat="48.23305" lon="6.8783">
        <ele>430.81</ele>
        <time>2018-02-19T13:06:33Z</time>
      </trkpt>
      <trkpt lat="48.23302" lon="6.8783">
        <ele>431.29</ele>
        <time>2018-02-19T13:06:36Z</time>
      </trkpt>
      <trkpt lat="48.23296" lon="6.87829">
        <ele>431.77</ele>
        <time>2018-02-19T13:06:41Z</time>
      </trkpt>
      <trkpt lat="48.23285" lon="6.87828">
        <ele>430.81</ele>
        <time>2018-02-19T13:06:52Z</time>
      </trkpt>
      <trkpt lat="48.23284" lon="6.87828">
        <ele>430.81</ele>
        <time>2018-02-19T13:06:53Z</time>
      </trkpt>
      <trkpt lat="48.2328" lon="6.87828">
        <ele>431.29</ele>
        <time>2018-02-19T13:06:56Z</time>
      </trkpt>
      <trkpt lat="48.23278" lon="6.87827">
        <ele>431.29</ele>
        <time>2018-02-19T13:06:57Z</time>
      </trkpt>
      <trkpt lat="48.23276" lon="6.87827">
        <ele>431.77</ele>
        <time>2018-02-19T13:06:59Z</time>
      </trkpt>
      <trkpt lat="48.2327" lon="6.87826">
        <ele>432.25</ele>
        <time>2018-02-19T13:07:04Z</time>
      </trkpt>
      <trkpt lat="48.23269" lon="6.87826">
        <ele>432.25</ele>
        <time>2018-02-19T13:07:05Z</time>
      </trkpt>
      <trkpt lat="48.23261" lon="6.87826">
        <ele>429.85</ele>
        <time>2018-02-19T13:07:14Z</time>
      </trkpt>
      <trkpt lat="48.2325" lon="6.87823">
        <ele>429.85</ele>
        <time>2018-02-19T13:07:25Z</time>
      </trkpt>
      <trkpt lat="48.23247" lon="6.87823">
        <ele>430.33</ele>
        <time>2018-02-19T13:07:29Z</time>
      </trkpt>
      <trkpt lat="48.23239" lon="6.87825">
        <ele>431.77</ele>
        <time>2018-02-19T13:07:38Z</time>
      </trkpt>
      <trkpt lat="48.23228" lon="6.87822">
        <ele>435.13</ele>
        <time>2018-02-19T13:07:50Z</time>
      </trkpt>
      <trkpt lat="48.23221" lon="6.87821">
        <ele>437.06</ele>
        <time>2018-02-19T13:07:56Z</time>
      </trkpt>
      <trkpt lat="48.23213" lon="6.87823">
        <ele>438.5</ele>
        <time>2018-02-19T13:08:03Z</time>
      </trkpt>
      <trkpt lat="48.23209" lon="6.87824">
        <ele>439.46</ele>
        <time>2018-02-19T13:08:07Z</time>
      </trkpt>
      <trkpt lat="48.23201" lon="6.87823">
        <ele>440.9</ele>
        <time>2018-02-19T13:08:14Z</time>
      </trkpt>
      <trkpt lat="48.23188" lon="6.87824">
        <ele>443.79</ele>
        <time>2018-02-19T13:08:25Z</time>
      </trkpt>
      <trkpt lat="48.23179" lon="6.87825">
        <ele>442.34</ele>
        <time>2018-02-19T13:08:34Z</time>
      </trkpt>
      <trkpt lat="48.23166" lon="6.87823">
        <ele>441.86</ele>
        <time>2018-02-19T13:08:46Z</time>
      </trkpt>
      <trkpt lat="48.23153" lon="6.87833">
        <ele>439.94</ele>
        <time>2018-02-19T13:08:57Z</time>
      </trkpt>
      <trkpt lat="48.23148" lon="6.87844">
        <ele>438.5</ele>
        <time>2018-02-19T13:09:06Z</time>
      </trkpt>
      <trkpt lat="48.23149" lon="6.87858">
        <ele>439.46</ele>
        <time>2018-02-19T13:09:15Z</time>
      </trkpt>
      <trkpt lat="48.23149" lon="6.87863">
        <ele>440.42</ele>
        <time>2018-02-19T13:09:17Z</time>
      </trkpt>
      <trkpt lat="48.23148" lon="6.87878">
        <ele>442.34</ele>
        <time>2018-02-19T13:09:27Z</time>
      </trkpt>
      <trkpt lat="48.23151" lon="6.87893">
        <ele>441.86</ele>
        <time>2018-02-19T13:09:37Z</time>
      </trkpt>
      <trkpt lat="48.23151" lon="6.87902">
        <ele>439.46</ele>
        <time>2018-02-19T13:09:44Z</time>
      </trkpt>
      <trkpt lat="48.2315" lon="6.87905">
        <ele>439.94</ele>
        <time>2018-02-19T13:09:46Z</time>
      </trkpt>
      <trkpt lat="48.2315" lon="6.87906">
        <ele>439.94</ele>
        <time>2018-02-19T13:09:47Z</time>
      </trkpt>
      <trkpt lat="48.2315" lon="6.87908">
        <ele>440.42</ele>
        <time>2018-02-19T13:09:48Z</time>
      </trkpt>
      <trkpt lat="48.23149" lon="6.87913">
        <ele>441.38</ele>
        <time>2018-02-19T13:09:50Z</time>
      </trkpt>
      <trkpt lat="48.23149" lon="6.87915">
        <ele>441.38</ele>
        <time>2018-02-19T13:09:51Z</time>
      </trkpt>
      <trkpt lat="48.23145" lon="6.8792">
        <ele>442.34</ele>
        <time>2018-02-19T13:09:56Z</time>
      </trkpt>
      <trkpt lat="48.23138" lon="6.87927">
        <ele>443.79</ele>
        <time>2018-02-19T13:10:04Z</time>
      </trkpt>
      <trkpt lat="48.23136" lon="6.87929">
        <ele>444.27</ele>
        <time>2018-02-19T13:10:06Z</time>
      </trkpt>
      <trkpt lat="48.23135" lon="6.87929">
        <ele>444.75</ele>
        <time>2018-02-19T13:10:07Z</time>
      </trkpt>
      <trkpt lat="48.2313" lon="6.87934">
        <ele>446.19</ele>
        <time>2018-02-19T13:10:13Z</time>
      </trkpt>
      <trkpt lat="48.23128" lon="6.87936">
        <ele>446.67</ele>
        <time>2018-02-19T13:10:15Z</time>
      </trkpt>
      <trkpt lat="48.23127" lon="6.87937">
        <ele>446.19</ele>
        <time>2018-02-19T13:10:17Z</time>
      </trkpt>
      <trkpt lat="48.23123" lon="6.87941">
        <ele>445.71</ele>
        <time>2018-02-19T13:10:22Z</time>
      </trkpt>
      <trkpt lat="48.23115" lon="6.87949">
        <ele>445.23</ele>
        <time>2018-02-19T13:10:31Z</time>
      </trkpt>
      <trkpt lat="48.23111" lon="6.87953">
        <ele>445.23</ele>
        <time>2018-02-19T13:10:36Z</time>
      </trkpt>
      <trkpt lat="48.23104" lon="6.87959">
        <ele>443.31</ele>
        <time>2018-02-19T13:10:45Z</time>
      </trkpt>
      <trkpt lat="48.23103" lon="6.8796">
        <ele>443.31</ele>
        <time>2018-02-19T13:10:46Z</time>
      </trkpt>
      <trkpt lat="48.23095" lon="6.87972">
        <ele>443.31</ele>
        <time>2018-02-19T13:10:58Z</time>
      </trkpt>
      <trkpt lat="48.2309" lon="6.87981">
        <ele>444.75</ele>
        <time>2018-02-19T13:11:05Z</time>
      </trkpt>
      <trkpt lat="48.23089" lon="6.87982">
        <ele>445.23</ele>
        <time>2018-02-19T13:11:06Z</time>
      </trkpt>
      <trkpt lat="48.23086" lon="6.87986">
        <ele>445.71</ele>
        <time>2018-02-19T13:11:10Z</time>
      </trkpt>
      <trkpt lat="48.23084" lon="6.8799">
        <ele>446.19</ele>
        <time>2018-02-19T13:11:14Z</time>
      </trkpt>
      <trkpt lat="48.23083" lon="6.87994">
        <ele>447.15</ele>
        <time>2018-02-19T13:11:16Z</time>
      </trkpt>
      <trkpt lat="48.23081" lon="6.87997">
        <ele>448.11</ele>
        <time>2018-02-19T13:11:18Z</time>
      </trkpt>
      <trkpt lat="48.23081" lon="6.87998">
        <ele>448.11</ele>
        <time>2018-02-19T13:11:19Z</time>
      </trkpt>
      <trkpt lat="48.2308" lon="6.87999">
        <ele>448.59</ele>
        <time>2018-02-19T13:11:20Z</time>
      </trkpt>
      <trkpt lat="48.23078" lon="6.88002">
        <ele>449.55</ele>
        <time>2018-02-19T13:11:22Z</time>
      </trkpt>
      <trkpt lat="48.23075" lon="6.88009">
        <ele>450.52</ele>
        <time>2018-02-19T13:11:29Z</time>
      </trkpt>
      <trkpt lat="48.23074" lon="6.8801">
        <ele>450.52</ele>
        <time>2018-02-19T13:11:30Z</time>
      </trkpt>
      <trkpt lat="48.23072" lon="6.88015">
        <ele>451</ele>
        <time>2018-02-19T13:11:34Z</time>
      </trkpt>
      <trkpt lat="48.23071" lon="6.88027">
        <ele>449.55</ele>
        <time>2018-02-19T13:11:42Z</time>
      </trkpt>
      <trkpt lat="48.23069" lon="6.88034">
        <ele>447.63</ele>
        <time>2018-02-19T13:11:48Z</time>
      </trkpt>
      <trkpt lat="48.2307" lon="6.88036">
        <ele>447.63</ele>
        <time>2018-02-19T13:11:49Z</time>
      </trkpt>
      <trkpt lat="48.2307" lon="6.8804">
        <ele>448.11</ele>
        <time>2018-02-19T13:11:51Z</time>
      </trkpt>
      <trkpt lat="48.23071" lon="6.88043">
        <ele>448.59</ele>
        <time>2018-02-19T13:11:53Z</time>
      </trkpt>
      <trkpt lat="48.23071" lon="6.88046">
        <ele>448.59</ele>
        <time>2018-02-19T13:11:55Z</time>
      </trkpt>
      <trkpt lat="48.23072" lon="6.88051">
        <ele>449.07</ele>
        <time>2018-02-19T13:11:58Z</time>
      </trkpt>
      <trkpt lat="48.23073" lon="6.88055">
        <ele>449.55</ele>
        <time>2018-02-19T13:12:00Z</time>
      </trkpt>
      <trkpt lat="48.23075" lon="6.88061">
        <ele>449.55</ele>
        <time>2018-02-19T13:12:03Z</time>
      </trkpt>
      <trkpt lat="48.23076" lon="6.88064">
        <ele>449.07</ele>
        <time>2018-02-19T13:12:05Z</time>
      </trkpt>
      <trkpt lat="48.23077" lon="6.88068">
        <ele>448.59</ele>
        <time>2018-02-19T13:12:07Z</time>
      </trkpt>
      <trkpt lat="48.23078" lon="6.88072">
        <ele>448.11</ele>
        <time>2018-02-19T13:12:10Z</time>
      </trkpt>
      <trkpt lat="48.23078" lon="6.88075">
        <ele>448.59</ele>
        <time>2018-02-19T13:12:12Z</time>
      </trkpt>
      <trkpt lat="48.23079" lon="6.88077">
        <ele>448.59</ele>
        <time>2018-02-19T13:12:13Z</time>
      </trkpt>
      <trkpt lat="48.23079" lon="6.88085">
        <ele>449.55</ele>
        <time>2018-02-19T13:12:17Z</time>
      </trkpt>
      <trkpt lat="48.23078" lon="6.88089">
        <ele>450.03</ele>
        <time>2018-02-19T13:12:19Z</time>
      </trkpt>
      <trkpt lat="48.23078" lon="6.88095">
        <ele>451.48</ele>
        <time>2018-02-19T13:12:22Z</time>
      </trkpt>
      <trkpt lat="48.23078" lon="6.88098">
        <ele>451.96</ele>
        <time>2018-02-19T13:12:24Z</time>
      </trkpt>
      <trkpt lat="48.23077" lon="6.881">
        <ele>452.44</ele>
        <time>2018-02-19T13:12:25Z</time>
      </trkpt>
      <trkpt lat="48.23075" lon="6.88105">
        <ele>453.88</ele>
        <time>2018-02-19T13:12:28Z</time>
      </trkpt>
      <trkpt lat="48.23075" lon="6.88107">
        <ele>454.36</ele>
        <time>2018-02-19T13:12:29Z</time>
      </trkpt>
      <trkpt lat="48.23074" lon="6.88109">
        <ele>454.84</ele>
        <time>2018-02-19T13:12:30Z</time>
      </trkpt>
      <trkpt lat="48.23072" lon="6.8811">
        <ele>454.84</ele>
        <time>2018-02-19T13:12:31Z</time>
      </trkpt>
      <trkpt lat="48.23071" lon="6.88113">
        <ele>455.32</ele>
        <time>2018-02-19T13:12:33Z</time>
      </trkpt>
      <trkpt lat="48.2307" lon="6.88114">
        <ele>455.8</ele>
        <time>2018-02-19T13:12:34Z</time>
      </trkpt>
      <trkpt lat="48.23069" lon="6.88116">
        <ele>456.28</ele>
        <time>2018-02-19T13:12:35Z</time>
      </trkpt>
      <trkpt lat="48.23066" lon="6.8812">
        <ele>456.76</ele>
        <time>2018-02-19T13:12:39Z</time>
      </trkpt>
      <trkpt lat="48.23063" lon="6.88123">
        <ele>456.76</ele>
        <time>2018-02-19T13:12:43Z</time>
      </trkpt>
      <trkpt lat="48.23062" lon="6.88124">
        <ele>457.24</ele>
        <time>2018-02-19T13:12:44Z</time>
      </trkpt>
      <trkpt lat="48.23061" lon="6.88125">
        <ele>457.24</ele>
        <time>2018-02-19T13:12:45Z</time>
      </trkpt>
      <trkpt lat="48.2306" lon="6.88126">
        <ele>457.72</ele>
        <time>2018-02-19T13:12:46Z</time>
      </trkpt>
      <trkpt lat="48.23059" lon="6.88127">
        <ele>457.72</ele>
        <time>2018-02-19T13:12:47Z</time>
      </trkpt>
      <trkpt lat="48.23058" lon="6.88128">
        <ele>457.72</ele>
        <time>2018-02-19T13:12:48Z</time>
      </trkpt>
      <trkpt lat="48.23057" lon="6.88129">
        <ele>457.72</ele>
        <time>2018-02-19T13:12:49Z</time>
      </trkpt>
      <trkpt lat="48.23053" lon="6.88131">
        <ele>458.21</ele>
        <time>2018-02-19T13:12:53Z</time>
      </trkpt>
      <trkpt lat="48.23051" lon="6.88133">
        <ele>458.21</ele>
        <time>2018-02-19T13:12:55Z</time>
      </trkpt>
      <trkpt lat="48.2305" lon="6.88134">
        <ele>458.21</ele>
        <time>2018-02-19T13:12:56Z</time>
      </trkpt>
      <trkpt lat="48.23049" lon="6.88135">
        <ele>458.21</ele>
        <time>2018-02-19T13:12:57Z</time>
      </trkpt>
      <trkpt lat="48.23039" lon="6.88143">
        <ele>460.13</ele>
        <time>2018-02-19T13:13:08Z</time>
      </trkpt>
      <trkpt lat="48.23028" lon="6.88147">
        <ele>461.09</ele>
        <time>2018-02-19T13:13:18Z</time>
      </trkpt>
      <trkpt lat="48.23027" lon="6.88147">
        <ele>461.09</ele>
        <time>2018-02-19T13:13:19Z</time>
      </trkpt>
      <trkpt lat="48.23026" lon="6.88148">
        <ele>461.09</ele>
        <time>2018-02-19T13:13:20Z</time>
      </trkpt>
      <trkpt lat="48.23025" lon="6.88148">
        <ele>461.57</ele>
        <time>2018-02-19T13:13:21Z</time>
      </trkpt>
      <trkpt lat="48.23023" lon="6.88148">
        <ele>461.09</ele>
        <time>2018-02-19T13:13:23Z</time>
      </trkpt>
      <trkpt lat="48.23021" lon="6.88149">
        <ele>461.57</ele>
        <time>2018-02-19T13:13:25Z</time>
      </trkpt>
      <trkpt lat="48.23019" lon="6.88149">
        <ele>462.05</ele>
        <time>2018-02-19T13:13:27Z</time>
      </trkpt>
      <trkpt lat="48.23009" lon="6.88152">
        <ele>461.09</ele>
        <time>2018-02-19T13:13:38Z</time>
      </trkpt>
      <trkpt lat="48.23008" lon="6.88153">
        <ele>461.09</ele>
        <time>2018-02-19T13:13:39Z</time>
      </trkpt>
      <trkpt lat="48.23" lon="6.88159">
        <ele>463.01</ele>
        <time>2018-02-19T13:13:48Z</time>
      </trkpt>
      <trkpt lat="48.22999" lon="6.8816">
        <ele>463.49</ele>
        <time>2018-02-19T13:13:49Z</time>
      </trkpt>
      <trkpt lat="48.22999" lon="6.88161">
        <ele>463.49</ele>
        <time>2018-02-19T13:13:50Z</time>
      </trkpt>
      <trkpt lat="48.22988" lon="6.88174">
        <ele>462.53</ele>
        <time>2018-02-19T13:14:04Z</time>
      </trkpt>
      <trkpt lat="48.22984" lon="6.88191">
        <ele>461.09</ele>
        <time>2018-02-19T13:14:16Z</time>
      </trkpt>
      <trkpt lat="48.22985" lon="6.88202">
        <ele>460.13</ele>
        <time>2018-02-19T13:14:22Z</time>
      </trkpt>
      <trkpt lat="48.22986" lon="6.88207">
        <ele>459.65</ele>
        <time>2018-02-19T13:14:26Z</time>
      </trkpt>
      <trkpt lat="48.22989" lon="6.88232">
        <ele>457.24</ele>
        <time>2018-02-19T13:14:42Z</time>
      </trkpt>
      <trkpt lat="48.22991" lon="6.88238">
        <ele>455.8</ele>
        <time>2018-02-19T13:14:57Z</time>
      </trkpt>
      <trkpt lat="48.22991" lon="6.88243">
        <ele>458.21</ele>
        <time>2018-02-19T13:15:12Z</time>
      </trkpt>
      <trkpt lat="48.22991" lon="6.88238">
        <ele>460.13</ele>
        <time>2018-02-19T13:15:28Z</time>
      </trkpt>
      <trkpt lat="48.22993" lon="6.88241">
        <ele>458.21</ele>
        <time>2018-02-19T13:15:48Z</time>
      </trkpt>
      <trkpt lat="48.22991" lon="6.88241">
        <ele>456.76</ele>
        <time>2018-02-19T13:16:11Z</time>
      </trkpt>
      <trkpt lat="48.22991" lon="6.88244">
        <ele>458.21</ele>
        <time>2018-02-19T13:16:32Z</time>
      </trkpt>
      <trkpt lat="48.22993" lon="6.8826">
        <ele>456.76</ele>
        <time>2018-02-19T13:16:46Z</time>
      </trkpt>
      <trkpt lat="48.22993" lon="6.88261">
        <ele>456.76</ele>
        <time>2018-02-19T13:16:47Z</time>
      </trkpt>
      <trkpt lat="48.2299" lon="6.88263">
        <ele>457.24</ele>
        <time>2018-02-19T13:16:50Z</time>
      </trkpt>
      <trkpt lat="48.22987" lon="6.88267">
        <ele>458.21</ele>
        <time>2018-02-19T13:16:56Z</time>
      </trkpt>
      <trkpt lat="48.22985" lon="6.88269">
        <ele>459.17</ele>
        <time>2018-02-19T13:16:58Z</time>
      </trkpt>
      <trkpt lat="48.22973" lon="6.88272">
        <ele>458.69</ele>
        <time>2018-02-19T13:17:11Z</time>
      </trkpt>
      <trkpt lat="48.22962" lon="6.88271">
        <ele>460.61</ele>
        <time>2018-02-19T13:17:22Z</time>
      </trkpt>
      <trkpt lat="48.22957" lon="6.88269">
        <ele>461.09</ele>
        <time>2018-02-19T13:17:26Z</time>
      </trkpt>
      <trkpt lat="48.22945" lon="6.88265">
        <ele>462.05</ele>
        <time>2018-02-19T13:17:38Z</time>
      </trkpt>
      <trkpt lat="48.22936" lon="6.88258">
        <ele>463.97</ele>
        <time>2018-02-19T13:17:48Z</time>
      </trkpt>
      <trkpt lat="48.22928" lon="6.88249">
        <ele>466.38</ele>
        <time>2018-02-19T13:17:58Z</time>
      </trkpt>
      <trkpt lat="48.2292" lon="6.88238">
        <ele>465.42</ele>
        <time>2018-02-19T13:18:09Z</time>
      </trkpt>
      <trkpt lat="48.22914" lon="6.88236">
        <ele>464.45</ele>
        <time>2018-02-19T13:18:20Z</time>
      </trkpt>
      <trkpt lat="48.22898" lon="6.88235">
        <ele>467.34</ele>
        <time>2018-02-19T13:18:28Z</time>
      </trkpt>
      <trkpt lat="48.22892" lon="6.88237">
        <ele>470.22</ele>
        <time>2018-02-19T13:18:34Z</time>
      </trkpt>
      <trkpt lat="48.2289" lon="6.88238">
        <ele>471.18</ele>
        <time>2018-02-19T13:18:35Z</time>
      </trkpt>
      <trkpt lat="48.22889" lon="6.8824">
        <ele>472.14</ele>
        <time>2018-02-19T13:18:36Z</time>
      </trkpt>
      <trkpt lat="48.22882" lon="6.88259">
        <ele>483.68</ele>
        <time>2018-02-19T13:18:47Z</time>
      </trkpt>
      <trkpt lat="48.22882" lon="6.88261">
        <ele>484.16</ele>
        <time>2018-02-19T13:18:48Z</time>
      </trkpt>
      <trkpt lat="48.22884" lon="6.88263">
        <ele>485.12</ele>
        <time>2018-02-19T13:18:49Z</time>
      </trkpt>
      <trkpt lat="48.22885" lon="6.88265">
        <ele>485.6</ele>
        <time>2018-02-19T13:18:50Z</time>
      </trkpt>
      <trkpt lat="48.22884" lon="6.88267">
        <ele>486.08</ele>
        <time>2018-02-19T13:18:51Z</time>
      </trkpt>
      <trkpt lat="48.22883" lon="6.88268">
        <ele>486.56</ele>
        <time>2018-02-19T13:18:52Z</time>
      </trkpt>
      <trkpt lat="48.22881" lon="6.8827">
        <ele>487.05</ele>
        <time>2018-02-19T13:18:53Z</time>
      </trkpt>
      <trkpt lat="48.22869" lon="6.88287">
        <ele>488.49</ele>
        <time>2018-02-19T13:19:04Z</time>
      </trkpt>
      <trkpt lat="48.22864" lon="6.88297">
        <ele>486.08</ele>
        <time>2018-02-19T13:19:12Z</time>
      </trkpt>
      <trkpt lat="48.22858" lon="6.88308">
        <ele>482.72</ele>
        <time>2018-02-19T13:19:22Z</time>
      </trkpt>
      <trkpt lat="48.22857" lon="6.88312">
        <ele>481.76</ele>
        <time>2018-02-19T13:19:26Z</time>
      </trkpt>
      <trkpt lat="48.22855" lon="6.88316">
        <ele>481.76</ele>
        <time>2018-02-19T13:19:28Z</time>
      </trkpt>
      <trkpt lat="48.22852" lon="6.88328">
        <ele>479.35</ele>
        <time>2018-02-19T13:19:37Z</time>
      </trkpt>
      <trkpt lat="48.22851" lon="6.88339">
        <ele>477.43</ele>
        <time>2018-02-19T13:19:44Z</time>
      </trkpt>
      <trkpt lat="48.22848" lon="6.88356">
        <ele>475.51</ele>
        <time>2018-02-19T13:19:56Z</time>
      </trkpt>
      <trkpt lat="48.22844" lon="6.88368">
        <ele>475.51</ele>
        <time>2018-02-19T13:20:06Z</time>
      </trkpt>
      <trkpt lat="48.22839" lon="6.88375">
        <ele>477.43</ele>
        <time>2018-02-19T13:20:13Z</time>
      </trkpt>
      <trkpt lat="48.22829" lon="6.88385">
        <ele>481.28</ele>
        <time>2018-02-19T13:20:25Z</time>
      </trkpt>
      <trkpt lat="48.22818" lon="6.8839">
        <ele>481.28</ele>
        <time>2018-02-19T13:20:35Z</time>
      </trkpt>
      <trkpt lat="48.22816" lon="6.8839">
        <ele>481.28</ele>
        <time>2018-02-19T13:20:37Z</time>
      </trkpt>
      <trkpt lat="48.22814" lon="6.8839">
        <ele>481.28</ele>
        <time>2018-02-19T13:20:38Z</time>
      </trkpt>
      <trkpt lat="48.22811" lon="6.8839">
        <ele>480.32</ele>
        <time>2018-02-19T13:20:40Z</time>
      </trkpt>
      <trkpt lat="48.2281" lon="6.88389">
        <ele>480.8</ele>
        <time>2018-02-19T13:20:41Z</time>
      </trkpt>
      <trkpt lat="48.22809" lon="6.88389">
        <ele>480.32</ele>
        <time>2018-02-19T13:20:42Z</time>
      </trkpt>
      <trkpt lat="48.22807" lon="6.88389">
        <ele>480.32</ele>
        <time>2018-02-19T13:20:44Z</time>
      </trkpt>
      <trkpt lat="48.22804" lon="6.88389">
        <ele>480.32</ele>
        <time>2018-02-19T13:20:47Z</time>
      </trkpt>
      <trkpt lat="48.228" lon="6.88388">
        <ele>479.35</ele>
        <time>2018-02-19T13:20:51Z</time>
      </trkpt>
      <trkpt lat="48.22798" lon="6.88388">
        <ele>479.84</ele>
        <time>2018-02-19T13:20:53Z</time>
      </trkpt>
      <trkpt lat="48.22796" lon="6.88388">
        <ele>480.32</ele>
        <time>2018-02-19T13:20:55Z</time>
      </trkpt>
      <trkpt lat="48.2279" lon="6.88379">
        <ele>482.72</ele>
        <time>2018-02-19T13:21:05Z</time>
      </trkpt>
      <trkpt lat="48.22783" lon="6.88367">
        <ele>483.68</ele>
        <time>2018-02-19T13:21:17Z</time>
      </trkpt>
      <trkpt lat="48.22779" lon="6.88363">
        <ele>484.16</ele>
        <time>2018-02-19T13:21:22Z</time>
      </trkpt>
      <trkpt lat="48.22775" lon="6.8836">
        <ele>484.64</ele>
        <time>2018-02-19T13:21:27Z</time>
      </trkpt>
      <trkpt lat="48.22768" lon="6.88357">
        <ele>485.12</ele>
        <time>2018-02-19T13:21:34Z</time>
      </trkpt>
      <trkpt lat="48.22759" lon="6.88354">
        <ele>485.6</ele>
        <time>2018-02-19T13:21:45Z</time>
      </trkpt>
      <trkpt lat="48.2275" lon="6.88346">
        <ele>487.53</ele>
        <time>2018-02-19T13:21:56Z</time>
      </trkpt>
      <trkpt lat="48.22743" lon="6.88341">
        <ele>486.56</ele>
        <time>2018-02-19T13:22:08Z</time>
      </trkpt>
      <trkpt lat="48.2274" lon="6.88336">
        <ele>488.01</ele>
        <time>2018-02-19T13:22:15Z</time>
      </trkpt>
      <trkpt lat="48.22734" lon="6.88328">
        <ele>492.81</ele>
        <time>2018-02-19T13:22:27Z</time>
      </trkpt>
      <trkpt lat="48.22729" lon="6.88325">
        <ele>493.29</ele>
        <time>2018-02-19T13:22:30Z</time>
      </trkpt>
      <trkpt lat="48.22713" lon="6.88314">
        <ele>495.22</ele>
        <time>2018-02-19T13:22:42Z</time>
      </trkpt>
      <trkpt lat="48.22709" lon="6.88309">
        <ele>498.1</ele>
        <time>2018-02-19T13:22:50Z</time>
      </trkpt>
      <trkpt lat="48.22703" lon="6.88301">
        <ele>501.46</ele>
        <time>2018-02-19T13:23:03Z</time>
      </trkpt>
      <trkpt lat="48.22697" lon="6.88287">
        <ele>500.98</ele>
        <time>2018-02-19T13:23:15Z</time>
      </trkpt>
      <trkpt lat="48.22693" lon="6.88266">
        <ele>500.98</ele>
        <time>2018-02-19T13:23:28Z</time>
      </trkpt>
      <trkpt lat="48.2269" lon="6.88247">
        <ele>505.79</ele>
        <time>2018-02-19T13:23:44Z</time>
      </trkpt>
      <trkpt lat="48.22692" lon="6.88233">
        <ele>506.75</ele>
        <time>2018-02-19T13:23:57Z</time>
      </trkpt>
      <trkpt lat="48.22681" lon="6.88217">
        <ele>508.19</ele>
        <time>2018-02-19T13:24:10Z</time>
      </trkpt>
      <trkpt lat="48.22666" lon="6.88205">
        <ele>508.19</ele>
        <time>2018-02-19T13:24:22Z</time>
      </trkpt>
      <trkpt lat="48.22655" lon="6.88203">
        <ele>509.64</ele>
        <time>2018-02-19T13:24:34Z</time>
      </trkpt>
      <trkpt lat="48.22646" lon="6.88203">
        <ele>509.16</ele>
        <time>2018-02-19T13:24:44Z</time>
      </trkpt>
      <trkpt lat="48.22634" lon="6.88209">
        <ele>509.16</ele>
        <time>2018-02-19T13:24:58Z</time>
      </trkpt>
      <trkpt lat="48.22627" lon="6.88203">
        <ele>510.12</ele>
        <time>2018-02-19T13:25:18Z</time>
      </trkpt>
      <trkpt lat="48.22618" lon="6.88206">
        <ele>510.6</ele>
        <time>2018-02-19T13:25:31Z</time>
      </trkpt>
      <trkpt lat="48.22612" lon="6.88199">
        <ele>511.08</ele>
        <time>2018-02-19T13:25:50Z</time>
      </trkpt>
      <trkpt lat="48.22604" lon="6.88194">
        <ele>510.12</ele>
        <time>2018-02-19T13:26:00Z</time>
      </trkpt>
      <trkpt lat="48.22598" lon="6.88191">
        <ele>511.56</ele>
        <time>2018-02-19T13:26:10Z</time>
      </trkpt>
      <trkpt lat="48.22597" lon="6.8819">
        <ele>511.56</ele>
        <time>2018-02-19T13:26:11Z</time>
      </trkpt>
      <trkpt lat="48.22586" lon="6.8819">
        <ele>513.48</ele>
        <time>2018-02-19T13:26:24Z</time>
      </trkpt>
      <trkpt lat="48.22576" lon="6.88186">
        <ele>514.44</ele>
        <time>2018-02-19T13:26:27Z</time>
      </trkpt>
      <trkpt lat="48.22568" lon="6.88184">
        <ele>517.33</ele>
        <time>2018-02-19T13:26:35Z</time>
      </trkpt>
      <trkpt lat="48.22565" lon="6.88182">
        <ele>519.25</ele>
        <time>2018-02-19T13:26:38Z</time>
      </trkpt>
      <trkpt lat="48.22557" lon="6.88185">
        <ele>522.61</ele>
        <time>2018-02-19T13:26:48Z</time>
      </trkpt>
      <trkpt lat="48.22553" lon="6.88186">
        <ele>525.02</ele>
        <time>2018-02-19T13:26:54Z</time>
      </trkpt>
      <trkpt lat="48.22548" lon="6.88187">
        <ele>526.94</ele>
        <time>2018-02-19T13:26:58Z</time>
      </trkpt>
      <trkpt lat="48.2254" lon="6.88189">
        <ele>530.79</ele>
        <time>2018-02-19T13:27:10Z</time>
      </trkpt>
      <trkpt lat="48.22529" lon="6.88191">
        <ele>528.86</ele>
        <time>2018-02-19T13:27:24Z</time>
      </trkpt>
      <trkpt lat="48.22513" lon="6.88208">
        <ele>518.29</ele>
        <time>2018-02-19T13:27:38Z</time>
      </trkpt>
      <trkpt lat="48.22504" lon="6.88221">
        <ele>510.12</ele>
        <time>2018-02-19T13:27:50Z</time>
      </trkpt>
      <trkpt lat="48.22501" lon="6.88228">
        <ele>505.79</ele>
        <time>2018-02-19T13:27:57Z</time>
      </trkpt>
      <trkpt lat="48.22499" lon="6.88246">
        <ele>501.46</ele>
        <time>2018-02-19T13:28:10Z</time>
      </trkpt>
      <trkpt lat="48.22496" lon="6.88283">
        <ele>503.39</ele>
        <time>2018-02-19T13:28:33Z</time>
      </trkpt>
      <trkpt lat="48.22494" lon="6.88292">
        <ele>505.31</ele>
        <time>2018-02-19T13:28:39Z</time>
      </trkpt>
      <trkpt lat="48.22486" lon="6.88302">
        <ele>502.43</ele>
        <time>2018-02-19T13:28:53Z</time>
      </trkpt>
      <trkpt lat="48.2248" lon="6.88308">
        <ele>503.39</ele>
        <time>2018-02-19T13:29:00Z</time>
      </trkpt>
      <trkpt lat="48.22474" lon="6.88315">
        <ele>504.83</ele>
        <time>2018-02-19T13:29:05Z</time>
      </trkpt>
      <trkpt lat="48.22464" lon="6.88324">
        <ele>505.31</ele>
        <time>2018-02-19T13:29:16Z</time>
      </trkpt>
      <trkpt lat="48.22455" lon="6.88332">
        <ele>501.46</ele>
        <time>2018-02-19T13:29:29Z</time>
      </trkpt>
      <trkpt lat="48.2245" lon="6.88339">
        <ele>496.66</ele>
        <time>2018-02-19T13:29:41Z</time>
      </trkpt>
      <trkpt lat="48.22446" lon="6.88349">
        <ele>495.22</ele>
        <time>2018-02-19T13:29:50Z</time>
      </trkpt>
      <trkpt lat="48.22439" lon="6.88366">
        <ele>495.22</ele>
        <time>2018-02-19T13:30:04Z</time>
      </trkpt>
      <trkpt lat="48.22431" lon="6.88381">
        <ele>496.18</ele>
        <time>2018-02-19T13:30:15Z</time>
      </trkpt>
      <trkpt lat="48.22431" lon="6.88386">
        <ele>496.66</ele>
        <time>2018-02-19T13:30:17Z</time>
      </trkpt>
      <trkpt lat="48.22423" lon="6.88409">
        <ele>503.39</ele>
        <time>2018-02-19T13:30:29Z</time>
      </trkpt>
      <trkpt lat="48.22415" lon="6.88431">
        <ele>508.67</ele>
        <time>2018-02-19T13:30:42Z</time>
      </trkpt>
      <trkpt lat="48.22413" lon="6.88437">
        <ele>510.6</ele>
        <time>2018-02-19T13:30:46Z</time>
      </trkpt>
      <trkpt lat="48.22409" lon="6.88446">
        <ele>513</ele>
        <time>2018-02-19T13:30:53Z</time>
      </trkpt>
      <trkpt lat="48.22405" lon="6.88463">
        <ele>514.44</ele>
        <time>2018-02-19T13:31:06Z</time>
      </trkpt>
      <trkpt lat="48.22401" lon="6.88474">
        <ele>515.4</ele>
        <time>2018-02-19T13:31:20Z</time>
      </trkpt>
      <trkpt lat="48.22392" lon="6.88467">
        <ele>514.92</ele>
        <time>2018-02-19T13:31:43Z</time>
      </trkpt>
      <trkpt lat="48.22397" lon="6.88495">
        <ele>513</ele>
        <time>2018-02-19T13:31:59Z</time>
      </trkpt>
      <trkpt lat="48.22391" lon="6.88506">
        <ele>514.92</ele>
        <time>2018-02-19T13:32:09Z</time>
      </trkpt>
      <trkpt lat="48.22388" lon="6.8851">
        <ele>516.37</ele>
        <time>2018-02-19T13:32:12Z</time>
      </trkpt>
      <trkpt lat="48.22382" lon="6.88521">
        <ele>520.21</ele>
        <time>2018-02-19T13:32:20Z</time>
      </trkpt>
      <trkpt lat="48.22373" lon="6.88527">
        <ele>524.06</ele>
        <time>2018-02-19T13:32:31Z</time>
      </trkpt>
      <trkpt lat="48.22362" lon="6.88535">
        <ele>523.58</ele>
        <time>2018-02-19T13:32:41Z</time>
      </trkpt>
      <trkpt lat="48.22352" lon="6.88538">
        <ele>518.29</ele>
        <time>2018-02-19T13:32:48Z</time>
      </trkpt>
      <trkpt lat="48.22346" lon="6.88541">
        <ele>515.88</ele>
        <time>2018-02-19T13:32:53Z</time>
      </trkpt>
      <trkpt lat="48.22344" lon="6.88543">
        <ele>514.92</ele>
        <time>2018-02-19T13:32:56Z</time>
      </trkpt>
      <trkpt lat="48.22341" lon="6.88545">
        <ele>514.44</ele>
        <time>2018-02-19T13:32:58Z</time>
      </trkpt>
      <trkpt lat="48.22336" lon="6.88553">
        <ele>514.92</ele>
        <time>2018-02-19T13:33:06Z</time>
      </trkpt>
      <trkpt lat="48.22334" lon="6.88557">
        <ele>513.96</ele>
        <time>2018-02-19T13:33:09Z</time>
      </trkpt>
      <trkpt lat="48.22326" lon="6.88575">
        <ele>513.96</ele>
        <time>2018-02-19T13:33:22Z</time>
      </trkpt>
      <trkpt lat="48.22326" lon="6.88586">
        <ele>516.85</ele>
        <time>2018-02-19T13:33:27Z</time>
      </trkpt>
      <trkpt lat="48.22325" lon="6.88601">
        <ele>520.21</ele>
        <time>2018-02-19T13:33:33Z</time>
      </trkpt>
      <trkpt lat="48.22323" lon="6.88603">
        <ele>520.69</ele>
        <time>2018-02-19T13:33:35Z</time>
      </trkpt>
      <trkpt lat="48.22314" lon="6.88621">
        <ele>529.34</ele>
        <time>2018-02-19T13:33:47Z</time>
      </trkpt>
      <trkpt lat="48.22309" lon="6.88636">
        <ele>536.55</ele>
        <time>2018-02-19T13:33:55Z</time>
      </trkpt>
      <trkpt lat="48.22305" lon="6.88645">
        <ele>543.76</ele>
        <time>2018-02-19T13:34:01Z</time>
      </trkpt>
      <trkpt lat="48.22302" lon="6.88654">
        <ele>548.09</ele>
        <time>2018-02-19T13:34:07Z</time>
      </trkpt>
      <trkpt lat="48.22297" lon="6.8866">
        <ele>551.93</ele>
        <time>2018-02-19T13:34:12Z</time>
      </trkpt>
      <trkpt lat="48.22295" lon="6.88663">
        <ele>552.9</ele>
        <time>2018-02-19T13:34:14Z</time>
      </trkpt>
      <trkpt lat="48.22286" lon="6.88679">
        <ele>556.26</ele>
        <time>2018-02-19T13:34:28Z</time>
      </trkpt>
      <trkpt lat="48.22278" lon="6.88689">
        <ele>555.3</ele>
        <time>2018-02-19T13:34:39Z</time>
      </trkpt>
      <trkpt lat="48.22269" lon="6.88704">
        <ele>553.38</ele>
        <time>2018-02-19T13:34:49Z</time>
      </trkpt>
      <trkpt lat="48.22264" lon="6.88715">
        <ele>550.49</ele>
        <time>2018-02-19T13:34:59Z</time>
      </trkpt>
      <trkpt lat="48.22254" lon="6.88724">
        <ele>547.61</ele>
        <time>2018-02-19T13:35:11Z</time>
      </trkpt>
      <trkpt lat="48.22253" lon="6.88725">
        <ele>547.61</ele>
        <time>2018-02-19T13:35:13Z</time>
      </trkpt>
      <trkpt lat="48.2225" lon="6.88727">
        <ele>547.13</ele>
        <time>2018-02-19T13:35:16Z</time>
      </trkpt>
      <trkpt lat="48.22232" lon="6.88729">
        <ele>543.28</ele>
        <time>2018-02-19T13:35:28Z</time>
      </trkpt>
      <trkpt lat="48.22231" lon="6.8873">
        <ele>543.28</ele>
        <time>2018-02-19T13:35:30Z</time>
      </trkpt>
      <trkpt lat="48.22225" lon="6.8873">
        <ele>543.28</ele>
        <time>2018-02-19T13:35:36Z</time>
      </trkpt>
      <trkpt lat="48.2222" lon="6.88731">
        <ele>541.36</ele>
        <time>2018-02-19T13:35:43Z</time>
      </trkpt>
      <trkpt lat="48.22207" lon="6.88734">
        <ele>539.44</ele>
        <time>2018-02-19T13:35:53Z</time>
      </trkpt>
      <trkpt lat="48.22201" lon="6.88737">
        <ele>537.51</ele>
        <time>2018-02-19T13:35:59Z</time>
      </trkpt>
      <trkpt lat="48.22195" lon="6.88739">
        <ele>535.11</ele>
        <time>2018-02-19T13:36:08Z</time>
      </trkpt>
      <trkpt lat="48.22188" lon="6.88743">
        <ele>536.07</ele>
        <time>2018-02-19T13:36:16Z</time>
      </trkpt>
      <trkpt lat="48.22175" lon="6.88742">
        <ele>537.99</ele>
        <time>2018-02-19T13:36:29Z</time>
      </trkpt>
      <trkpt lat="48.22167" lon="6.88735">
        <ele>539.44</ele>
        <time>2018-02-19T13:36:39Z</time>
      </trkpt>
      <trkpt lat="48.22159" lon="6.88726">
        <ele>540.4</ele>
        <time>2018-02-19T13:36:49Z</time>
      </trkpt>
      <trkpt lat="48.22156" lon="6.88719">
        <ele>542.8</ele>
        <time>2018-02-19T13:37:00Z</time>
      </trkpt>
      <trkpt lat="48.22152" lon="6.88714">
        <ele>545.69</ele>
        <time>2018-02-19T13:37:11Z</time>
      </trkpt>
      <trkpt lat="48.22146" lon="6.88708">
        <ele>548.09</ele>
        <time>2018-02-19T13:37:25Z</time>
      </trkpt>
      <trkpt lat="48.22136" lon="6.88705">
        <ele>550.97</ele>
        <time>2018-02-19T13:37:36Z</time>
      </trkpt>
      <trkpt lat="48.22129" lon="6.88705">
        <ele>554.82</ele>
        <time>2018-02-19T13:37:45Z</time>
      </trkpt>
      <trkpt lat="48.22126" lon="6.88705">
        <ele>556.26</ele>
        <time>2018-02-19T13:37:48Z</time>
      </trkpt>
      <trkpt lat="48.22116" lon="6.88705">
        <ele>556.26</ele>
        <time>2018-02-19T13:38:00Z</time>
      </trkpt>
      <trkpt lat="48.2211" lon="6.88706">
        <ele>555.3</ele>
        <time>2018-02-19T13:38:08Z</time>
      </trkpt>
      <trkpt lat="48.22108" lon="6.88707">
        <ele>554.82</ele>
        <time>2018-02-19T13:38:11Z</time>
      </trkpt>
      <trkpt lat="48.22095" lon="6.88708">
        <ele>555.78</ele>
        <time>2018-02-19T13:38:24Z</time>
      </trkpt>
      <trkpt lat="48.22084" lon="6.88709">
        <ele>553.86</ele>
        <time>2018-02-19T13:38:32Z</time>
      </trkpt>
      <trkpt lat="48.22082" lon="6.88706">
        <ele>553.38</ele>
        <time>2018-02-19T13:38:44Z</time>
      </trkpt>
      <trkpt lat="48.22082" lon="6.88704">
        <ele>554.34</ele>
        <time>2018-02-19T13:39:04Z</time>
      </trkpt>
      <trkpt lat="48.22083" lon="6.88702">
        <ele>557.22</ele>
        <time>2018-02-19T13:39:31Z</time>
      </trkpt>
      <trkpt lat="48.22087" lon="6.88705">
        <ele>555.3</ele>
        <time>2018-02-19T13:39:49Z</time>
      </trkpt>
      <trkpt lat="48.22091" lon="6.88707">
        <ele>555.3</ele>
        <time>2018-02-19T13:40:23Z</time>
      </trkpt>
      <trkpt lat="48.22083" lon="6.88709">
        <ele>551.93</ele>
        <time>2018-02-19T13:40:35Z</time>
      </trkpt>
      <trkpt lat="48.22073" lon="6.88703">
        <ele>557.22</ele>
        <time>2018-02-19T13:40:46Z</time>
      </trkpt>
      <trkpt lat="48.22068" lon="6.88699">
        <ele>557.7</ele>
        <time>2018-02-19T13:40:51Z</time>
      </trkpt>
      <trkpt lat="48.22058" lon="6.8869">
        <ele>559.14</ele>
        <time>2018-02-19T13:41:02Z</time>
      </trkpt>
      <trkpt lat="48.22049" lon="6.88684">
        <ele>558.18</ele>
        <time>2018-02-19T13:41:13Z</time>
      </trkpt>
      <trkpt lat="48.22038" lon="6.88675">
        <ele>557.22</ele>
        <time>2018-02-19T13:41:25Z</time>
      </trkpt>
      <trkpt lat="48.22034" lon="6.88673">
        <ele>556.74</ele>
        <time>2018-02-19T13:41:28Z</time>
      </trkpt>
      <trkpt lat="48.22028" lon="6.88669">
        <ele>555.3</ele>
        <time>2018-02-19T13:41:32Z</time>
      </trkpt>
      <trkpt lat="48.22025" lon="6.88666">
        <ele>554.82</ele>
        <time>2018-02-19T13:41:35Z</time>
      </trkpt>
      <trkpt lat="48.22018" lon="6.88654">
        <ele>552.9</ele>
        <time>2018-02-19T13:41:47Z</time>
      </trkpt>
      <trkpt lat="48.22009" lon="6.88643">
        <ele>550.01</ele>
        <time>2018-02-19T13:41:59Z</time>
      </trkpt>
      <trkpt lat="48.22001" lon="6.88635">
        <ele>547.61</ele>
        <time>2018-02-19T13:42:10Z</time>
      </trkpt>
      <trkpt lat="48.21992" lon="6.88627">
        <ele>548.09</ele>
        <time>2018-02-19T13:42:21Z</time>
      </trkpt>
      <trkpt lat="48.21985" lon="6.8862">
        <ele>548.09</ele>
        <time>2018-02-19T13:42:33Z</time>
      </trkpt>
      <trkpt lat="48.21975" lon="6.88607">
        <ele>550.01</ele>
        <time>2018-02-19T13:42:46Z</time>
      </trkpt>
      <trkpt lat="48.21969" lon="6.88597">
        <ele>550.01</ele>
        <time>2018-02-19T13:42:57Z</time>
      </trkpt>
      <trkpt lat="48.21963" lon="6.8859">
        <ele>550.01</ele>
        <time>2018-02-19T13:43:04Z</time>
      </trkpt>
      <trkpt lat="48.21961" lon="6.88586">
        <ele>550.01</ele>
        <time>2018-02-19T13:43:07Z</time>
      </trkpt>
      <trkpt lat="48.21952" lon="6.88573">
        <ele>551.45</ele>
        <time>2018-02-19T13:43:20Z</time>
      </trkpt>
      <trkpt lat="48.21948" lon="6.88565">
        <ele>551.45</ele>
        <time>2018-02-19T13:43:27Z</time>
      </trkpt>
      <trkpt lat="48.21942" lon="6.88551">
        <ele>552.41</ele>
        <time>2018-02-19T13:43:38Z</time>
      </trkpt>
      <trkpt lat="48.21938" lon="6.88541">
        <ele>553.38</ele>
        <time>2018-02-19T13:43:45Z</time>
      </trkpt>
      <trkpt lat="48.21933" lon="6.88525">
        <ele>555.78</ele>
        <time>2018-02-19T13:43:57Z</time>
      </trkpt>
      <trkpt lat="48.21929" lon="6.8851">
        <ele>555.78</ele>
        <time>2018-02-19T13:44:09Z</time>
      </trkpt>
      <trkpt lat="48.21926" lon="6.88496">
        <ele>555.78</ele>
        <time>2018-02-19T13:44:20Z</time>
      </trkpt>
      <trkpt lat="48.21924" lon="6.88484">
        <ele>555.3</ele>
        <time>2018-02-19T13:44:30Z</time>
      </trkpt>
      <trkpt lat="48.21923" lon="6.88481">
        <ele>555.3</ele>
        <time>2018-02-19T13:44:32Z</time>
      </trkpt>
      <trkpt lat="48.21922" lon="6.88478">
        <ele>555.78</ele>
        <time>2018-02-19T13:44:34Z</time>
      </trkpt>
      <trkpt lat="48.21921" lon="6.88475">
        <ele>556.26</ele>
        <time>2018-02-19T13:44:36Z</time>
      </trkpt>
      <trkpt lat="48.21918" lon="6.88456">
        <ele>556.74</ele>
        <time>2018-02-19T13:44:48Z</time>
      </trkpt>
      <trkpt lat="48.21913" lon="6.88439">
        <ele>558.18</ele>
        <time>2018-02-19T13:45:00Z</time>
      </trkpt>
      <trkpt lat="48.21908" lon="6.88419">
        <ele>558.18</ele>
        <time>2018-02-19T13:45:15Z</time>
      </trkpt>
      <trkpt lat="48.21905" lon="6.88411">
        <ele>556.74</ele>
        <time>2018-02-19T13:45:22Z</time>
      </trkpt>
      <trkpt lat="48.21904" lon="6.88405">
        <ele>557.22</ele>
        <time>2018-02-19T13:45:25Z</time>
      </trkpt>
      <trkpt lat="48.21901" lon="6.88395">
        <ele>557.22</ele>
        <time>2018-02-19T13:45:32Z</time>
      </trkpt>
      <trkpt lat="48.21902" lon="6.88374">
        <ele>558.18</ele>
        <time>2018-02-19T13:45:46Z</time>
      </trkpt>
      <trkpt lat="48.21902" lon="6.88355">
        <ele>557.22</ele>
        <time>2018-02-19T13:45:59Z</time>
      </trkpt>
      <trkpt lat="48.21904" lon="6.88336">
        <ele>556.26</ele>
        <time>2018-02-19T13:46:12Z</time>
      </trkpt>
      <trkpt lat="48.21905" lon="6.88334">
        <ele>556.74</ele>
        <time>2018-02-19T13:46:13Z</time>
      </trkpt>
      <trkpt lat="48.21905" lon="6.88313">
        <ele>554.82</ele>
        <time>2018-02-19T13:46:26Z</time>
      </trkpt>
      <trkpt lat="48.21906" lon="6.88297">
        <ele>553.38</ele>
        <time>2018-02-19T13:46:38Z</time>
      </trkpt>
      <trkpt lat="48.21906" lon="6.88287">
        <ele>552.9</ele>
        <time>2018-02-19T13:46:45Z</time>
      </trkpt>
      <trkpt lat="48.21907" lon="6.88277">
        <ele>552.9</ele>
        <time>2018-02-19T13:46:51Z</time>
      </trkpt>
      <trkpt lat="48.21909" lon="6.88261">
        <ele>552.9</ele>
        <time>2018-02-19T13:47:02Z</time>
      </trkpt>
      <trkpt lat="48.21915" lon="6.88243">
        <ele>550.97</ele>
        <time>2018-02-19T13:47:15Z</time>
      </trkpt>
      <trkpt lat="48.21919" lon="6.88228">
        <ele>545.69</ele>
        <time>2018-02-19T13:47:28Z</time>
      </trkpt>
      <trkpt lat="48.21922" lon="6.88216">
        <ele>542.32</ele>
        <time>2018-02-19T13:47:40Z</time>
      </trkpt>
      <trkpt lat="48.21917" lon="6.88201">
        <ele>540.88</ele>
        <time>2018-02-19T13:47:51Z</time>
      </trkpt>
      <trkpt lat="48.21911" lon="6.88193">
        <ele>540.88</ele>
        <time>2018-02-19T13:47:57Z</time>
      </trkpt>
      <trkpt lat="48.21903" lon="6.88178">
        <ele>542.32</ele>
        <time>2018-02-19T13:48:09Z</time>
      </trkpt>
      <trkpt lat="48.21899" lon="6.88173">
        <ele>544.72</ele>
        <time>2018-02-19T13:48:12Z</time>
      </trkpt>
      <trkpt lat="48.21888" lon="6.8816">
        <ele>546.65</ele>
        <time>2018-02-19T13:48:25Z</time>
      </trkpt>
      <trkpt lat="48.21886" lon="6.88158">
        <ele>546.17</ele>
        <time>2018-02-19T13:48:29Z</time>
      </trkpt>
      <trkpt lat="48.21876" lon="6.88151">
        <ele>545.69</ele>
        <time>2018-02-19T13:48:41Z</time>
      </trkpt>
      <trkpt lat="48.21866" lon="6.88145">
        <ele>544.72</ele>
        <time>2018-02-19T13:48:54Z</time>
      </trkpt>
      <trkpt lat="48.21853" lon="6.8814">
        <ele>542.8</ele>
        <time>2018-02-19T13:49:08Z</time>
      </trkpt>
      <trkpt lat="48.21839" lon="6.88134">
        <ele>542.32</ele>
        <time>2018-02-19T13:49:21Z</time>
      </trkpt>
      <trkpt lat="48.21828" lon="6.88129">
        <ele>539.92</ele>
        <time>2018-02-19T13:49:34Z</time>
      </trkpt>
      <trkpt lat="48.21823" lon="6.88121">
        <ele>538.96</ele>
        <time>2018-02-19T13:49:42Z</time>
      </trkpt>
      <trkpt lat="48.2182" lon="6.8811">
        <ele>536.55</ele>
        <time>2018-02-19T13:49:54Z</time>
      </trkpt>
      <trkpt lat="48.21815" lon="6.88095">
        <ele>537.99</ele>
        <time>2018-02-19T13:50:07Z</time>
      </trkpt>
      <trkpt lat="48.21813" lon="6.88083">
        <ele>536.55</ele>
        <time>2018-02-19T13:50:16Z</time>
      </trkpt>
      <trkpt lat="48.21815" lon="6.88074">
        <ele>533.19</ele>
        <time>2018-02-19T13:50:28Z</time>
      </trkpt>
      <trkpt lat="48.21815" lon="6.88054">
        <ele>535.59</ele>
        <time>2018-02-19T13:50:41Z</time>
      </trkpt>
      <trkpt lat="48.21816" lon="6.88041">
        <ele>537.03</ele>
        <time>2018-02-19T13:50:53Z</time>
      </trkpt>
      <trkpt lat="48.21821" lon="6.88022">
        <ele>532.23</ele>
        <time>2018-02-19T13:51:10Z</time>
      </trkpt>
      <trkpt lat="48.21822" lon="6.8801">
        <ele>530.79</ele>
        <time>2018-02-19T13:51:26Z</time>
      </trkpt>
      <trkpt lat="48.21819" lon="6.8801">
        <ele>532.23</ele>
        <time>2018-02-19T13:51:43Z</time>
      </trkpt>
      <trkpt lat="48.21819" lon="6.88008">
        <ele>532.23</ele>
        <time>2018-02-19T13:52:10Z</time>
      </trkpt>
      <trkpt lat="48.21816" lon="6.88004">
        <ele>535.59</ele>
        <time>2018-02-19T13:52:31Z</time>
      </trkpt>
      <trkpt lat="48.21814" lon="6.88">
        <ele>534.15</ele>
        <time>2018-02-19T13:52:52Z</time>
      </trkpt>
      <trkpt lat="48.21815" lon="6.87999">
        <ele>537.51</ele>
        <time>2018-02-19T13:53:12Z</time>
      </trkpt>
      <trkpt lat="48.21816" lon="6.87999">
        <ele>537.99</ele>
        <time>2018-02-19T13:53:30Z</time>
      </trkpt>
      <trkpt lat="48.21815" lon="6.88005">
        <ele>537.51</ele>
        <time>2018-02-19T13:53:56Z</time>
      </trkpt>
      <trkpt lat="48.21816" lon="6.88005">
        <ele>537.03</ele>
        <time>2018-02-19T13:54:14Z</time>
      </trkpt>
      <trkpt lat="48.21814" lon="6.88003">
        <ele>535.59</ele>
        <time>2018-02-19T13:54:39Z</time>
      </trkpt>
      <trkpt lat="48.21817" lon="6.88007">
        <ele>535.11</ele>
        <time>2018-02-19T13:54:58Z</time>
      </trkpt>
      <trkpt lat="48.21817" lon="6.88">
        <ele>534.63</ele>
        <time>2018-02-19T13:55:21Z</time>
      </trkpt>
      <trkpt lat="48.21817" lon="6.88005">
        <ele>534.63</ele>
        <time>2018-02-19T13:55:43Z</time>
      </trkpt>
      <trkpt lat="48.21817" lon="6.87997">
        <ele>535.11</ele>
        <time>2018-02-19T13:56:05Z</time>
      </trkpt>
      <trkpt lat="48.21818" lon="6.87993">
        <ele>536.07</ele>
        <time>2018-02-19T13:56:16Z</time>
      </trkpt>
      <trkpt lat="48.21817" lon="6.87991">
        <ele>536.07</ele>
        <time>2018-02-19T13:56:27Z</time>
      </trkpt>
      <trkpt lat="48.2181" lon="6.8799">
        <ele>535.59</ele>
        <time>2018-02-19T13:56:38Z</time>
      </trkpt>
      <trkpt lat="48.21794" lon="6.8799">
        <ele>535.59</ele>
        <time>2018-02-19T13:56:52Z</time>
      </trkpt>
      <trkpt lat="48.21781" lon="6.87993">
        <ele>534.63</ele>
        <time>2018-02-19T13:57:03Z</time>
      </trkpt>
      <trkpt lat="48.21774" lon="6.87994">
        <ele>537.03</ele>
        <time>2018-02-19T13:57:13Z</time>
      </trkpt>
      <trkpt lat="48.21761" lon="6.87993">
        <ele>537.51</ele>
        <time>2018-02-19T13:57:27Z</time>
      </trkpt>
      <trkpt lat="48.21748" lon="6.87992">
        <ele>537.03</ele>
        <time>2018-02-19T13:57:38Z</time>
      </trkpt>
      <trkpt lat="48.21731" lon="6.87992">
        <ele>536.55</ele>
        <time>2018-02-19T13:57:52Z</time>
      </trkpt>
      <trkpt lat="48.21718" lon="6.87992">
        <ele>537.99</ele>
        <time>2018-02-19T13:58:02Z</time>
      </trkpt>
      <trkpt lat="48.21706" lon="6.87989">
        <ele>537.03</ele>
        <time>2018-02-19T13:58:14Z</time>
      </trkpt>
      <trkpt lat="48.21698" lon="6.87986">
        <ele>534.15</ele>
        <time>2018-02-19T13:58:25Z</time>
      </trkpt>
      <trkpt lat="48.21693" lon="6.87983">
        <ele>531.75</ele>
        <time>2018-02-19T13:58:36Z</time>
      </trkpt>
      <trkpt lat="48.21688" lon="6.87978">
        <ele>530.3</ele>
        <time>2018-02-19T13:58:47Z</time>
      </trkpt>
      <trkpt lat="48.21679" lon="6.87976">
        <ele>528.86</ele>
        <time>2018-02-19T13:59:00Z</time>
      </trkpt>
      <trkpt lat="48.21672" lon="6.8798">
        <ele>527.9</ele>
        <time>2018-02-19T13:59:12Z</time>
      </trkpt>
      <trkpt lat="48.21661" lon="6.87983">
        <ele>527.9</ele>
        <time>2018-02-19T13:59:26Z</time>
      </trkpt>
      <trkpt lat="48.21648" lon="6.87983">
        <ele>525.5</ele>
        <time>2018-02-19T13:59:40Z</time>
      </trkpt>
      <trkpt lat="48.21636" lon="6.87982">
        <ele>524.54</ele>
        <time>2018-02-19T13:59:53Z</time>
      </trkpt>
      <trkpt lat="48.21622" lon="6.87982">
        <ele>524.06</ele>
        <time>2018-02-19T14:00:06Z</time>
      </trkpt>
      <trkpt lat="48.21611" lon="6.87981">
        <ele>524.54</ele>
        <time>2018-02-19T14:00:20Z</time>
      </trkpt>
      <trkpt lat="48.21601" lon="6.87974">
        <ele>522.13</ele>
        <time>2018-02-19T14:00:34Z</time>
      </trkpt>
      <trkpt lat="48.21595" lon="6.87963">
        <ele>521.65</ele>
        <time>2018-02-19T14:00:45Z</time>
      </trkpt>
      <trkpt lat="48.2159" lon="6.87948">
        <ele>519.25</ele>
        <time>2018-02-19T14:00:58Z</time>
      </trkpt>
      <trkpt lat="48.2159" lon="6.87928">
        <ele>514.92</ele>
        <time>2018-02-19T14:01:15Z</time>
      </trkpt>
      <trkpt lat="48.21583" lon="6.8791">
        <ele>517.81</ele>
        <time>2018-02-19T14:01:30Z</time>
      </trkpt>
      <trkpt lat="48.21572" lon="6.87909">
        <ele>518.77</ele>
        <time>2018-02-19T14:01:45Z</time>
      </trkpt>
      <trkpt lat="48.21565" lon="6.87913">
        <ele>515.4</ele>
        <time>2018-02-19T14:01:57Z</time>
      </trkpt>
      <trkpt lat="48.21552" lon="6.8792">
        <ele>513.96</ele>
        <time>2018-02-19T14:02:12Z</time>
      </trkpt>
      <trkpt lat="48.21542" lon="6.87927">
        <ele>515.4</ele>
        <time>2018-02-19T14:02:18Z</time>
      </trkpt>
      <trkpt lat="48.21525" lon="6.87941">
        <ele>513.96</ele>
        <time>2018-02-19T14:02:33Z</time>
      </trkpt>
      <trkpt lat="48.21516" lon="6.87953">
        <ele>512.04</ele>
        <time>2018-02-19T14:02:46Z</time>
      </trkpt>
      <trkpt lat="48.21506" lon="6.87964">
        <ele>511.08</ele>
        <time>2018-02-19T14:02:59Z</time>
      </trkpt>
      <trkpt lat="48.21499" lon="6.87966">
        <ele>510.6</ele>
        <time>2018-02-19T14:03:09Z</time>
      </trkpt>
      <trkpt lat="48.21491" lon="6.87965">
        <ele>508.67</ele>
        <time>2018-02-19T14:03:20Z</time>
      </trkpt>
      <trkpt lat="48.21483" lon="6.8796">
        <ele>504.35</ele>
        <time>2018-02-19T14:03:34Z</time>
      </trkpt>
      <trkpt lat="48.21471" lon="6.87956">
        <ele>499.06</ele>
        <time>2018-02-19T14:03:50Z</time>
      </trkpt>
      <trkpt lat="48.21463" lon="6.87959">
        <ele>494.74</ele>
        <time>2018-02-19T14:04:02Z</time>
      </trkpt>
      <trkpt lat="48.21456" lon="6.87971">
        <ele>485.12</ele>
        <time>2018-02-19T14:04:17Z</time>
      </trkpt>
      <trkpt lat="48.21447" lon="6.87981">
        <ele>473.59</ele>
        <time>2018-02-19T14:04:31Z</time>
      </trkpt>
      <trkpt lat="48.21437" lon="6.87978">
        <ele>457.72</ele>
        <time>2018-02-19T14:04:46Z</time>
      </trkpt>
      <trkpt lat="48.21423" lon="6.87977">
        <ele>444.27</ele>
        <time>2018-02-19T14:04:58Z</time>
      </trkpt>
      <trkpt lat="48.21412" lon="6.8798">
        <ele>433.69</ele>
        <time>2018-02-19T14:05:09Z</time>
      </trkpt>
      <trkpt lat="48.21401" lon="6.87987">
        <ele>426.48</ele>
        <time>2018-02-19T14:05:21Z</time>
      </trkpt>
      <trkpt lat="48.21393" lon="6.88">
        <ele>427.44</ele>
        <time>2018-02-19T14:05:33Z</time>
      </trkpt>
      <trkpt lat="48.21386" lon="6.88011">
        <ele>426.48</ele>
        <time>2018-02-19T14:05:43Z</time>
      </trkpt>
      <trkpt lat="48.21375" lon="6.88033">
        <ele>428.89</ele>
        <time>2018-02-19T14:06:00Z</time>
      </trkpt>
      <trkpt lat="48.2137" lon="6.88048">
        <ele>430.81</ele>
        <time>2018-02-19T14:06:13Z</time>
      </trkpt>
      <trkpt lat="48.21362" lon="6.88068">
        <ele>430.33</ele>
        <time>2018-02-19T14:06:28Z</time>
      </trkpt>
      <trkpt lat="48.21357" lon="6.88087">
        <ele>431.77</ele>
        <time>2018-02-19T14:06:41Z</time>
      </trkpt>
      <trkpt lat="48.21352" lon="6.881">
        <ele>432.73</ele>
        <time>2018-02-19T14:06:52Z</time>
      </trkpt>
      <trkpt lat="48.2135" lon="6.88102">
        <ele>432.73</ele>
        <time>2018-02-19T14:06:54Z</time>
      </trkpt>
      <trkpt lat="48.21348" lon="6.8813">
        <ele>438.98</ele>
        <time>2018-02-19T14:07:09Z</time>
      </trkpt>
      <trkpt lat="48.21349" lon="6.8815">
        <ele>440.9</ele>
        <time>2018-02-19T14:07:23Z</time>
      </trkpt>
      <trkpt lat="48.21351" lon="6.8817">
        <ele>442.34</ele>
        <time>2018-02-19T14:07:33Z</time>
      </trkpt>
      <trkpt lat="48.21353" lon="6.88195">
        <ele>444.75</ele>
        <time>2018-02-19T14:07:46Z</time>
      </trkpt>
      <trkpt lat="48.21357" lon="6.88218">
        <ele>447.63</ele>
        <time>2018-02-19T14:08:01Z</time>
      </trkpt>
      <trkpt lat="48.21361" lon="6.88241">
        <ele>455.32</ele>
        <time>2018-02-19T14:08:15Z</time>
      </trkpt>
      <trkpt lat="48.21362" lon="6.88259">
        <ele>459.17</ele>
        <time>2018-02-19T14:08:28Z</time>
      </trkpt>
      <trkpt lat="48.21364" lon="6.88277">
        <ele>461.57</ele>
        <time>2018-02-19T14:08:40Z</time>
      </trkpt>
      <trkpt lat="48.21364" lon="6.883">
        <ele>462.05</ele>
        <time>2018-02-19T14:08:55Z</time>
      </trkpt>
      <trkpt lat="48.21363" lon="6.88322">
        <ele>459.65</ele>
        <time>2018-02-19T14:09:10Z</time>
      </trkpt>
      <trkpt lat="48.21363" lon="6.88339">
        <ele>456.76</ele>
        <time>2018-02-19T14:09:22Z</time>
      </trkpt>
      <trkpt lat="48.21363" lon="6.8836">
        <ele>456.28</ele>
        <time>2018-02-19T14:09:36Z</time>
      </trkpt>
      <trkpt lat="48.21363" lon="6.88383">
        <ele>455.32</ele>
        <time>2018-02-19T14:09:52Z</time>
      </trkpt>
      <trkpt lat="48.21363" lon="6.88398">
        <ele>452.92</ele>
        <time>2018-02-19T14:10:04Z</time>
      </trkpt>
      <trkpt lat="48.21361" lon="6.8842">
        <ele>452.92</ele>
        <time>2018-02-19T14:10:20Z</time>
      </trkpt>
      <trkpt lat="48.2136" lon="6.88444">
        <ele>458.21</ele>
        <time>2018-02-19T14:10:34Z</time>
      </trkpt>
      <trkpt lat="48.21364" lon="6.88455">
        <ele>460.13</ele>
        <time>2018-02-19T14:10:44Z</time>
      </trkpt>
      <trkpt lat="48.21368" lon="6.88471">
        <ele>460.13</ele>
        <time>2018-02-19T14:10:57Z</time>
      </trkpt>
      <trkpt lat="48.21371" lon="6.8849">
        <ele>463.01</ele>
        <time>2018-02-19T14:11:11Z</time>
      </trkpt>
      <trkpt lat="48.21375" lon="6.88515">
        <ele>463.49</ele>
        <time>2018-02-19T14:11:25Z</time>
      </trkpt>
      <trkpt lat="48.21382" lon="6.88526">
        <ele>456.28</ele>
        <time>2018-02-19T14:11:38Z</time>
      </trkpt>
      <trkpt lat="48.21383" lon="6.88527">
        <ele>455.32</ele>
        <time>2018-02-19T14:11:39Z</time>
      </trkpt>
      <trkpt lat="48.2139" lon="6.88538">
        <ele>449.07</ele>
        <time>2018-02-19T14:11:53Z</time>
      </trkpt>
      <trkpt lat="48.21397" lon="6.88554">
        <ele>446.67</ele>
        <time>2018-02-19T14:12:06Z</time>
      </trkpt>
      <trkpt lat="48.21407" lon="6.8857">
        <ele>443.31</ele>
        <time>2018-02-19T14:12:20Z</time>
      </trkpt>
      <trkpt lat="48.21415" lon="6.88586">
        <ele>438.98</ele>
        <time>2018-02-19T14:12:33Z</time>
      </trkpt>
      <trkpt lat="48.21425" lon="6.88603">
        <ele>442.34</ele>
        <time>2018-02-19T14:12:47Z</time>
      </trkpt>
      <trkpt lat="48.21435" lon="6.88628">
        <ele>443.79</ele>
        <time>2018-02-19T14:13:03Z</time>
      </trkpt>
      <trkpt lat="48.21437" lon="6.88632">
        <ele>443.79</ele>
        <time>2018-02-19T14:13:10Z</time>
      </trkpt>
      <trkpt lat="48.21444" lon="6.88659">
        <ele>446.67</ele>
        <time>2018-02-19T14:13:21Z</time>
      </trkpt>
      <trkpt lat="48.21452" lon="6.88682">
        <ele>446.67</ele>
        <time>2018-02-19T14:13:37Z</time>
      </trkpt>
      <trkpt lat="48.21455" lon="6.88694">
        <ele>446.19</ele>
        <time>2018-02-19T14:13:45Z</time>
      </trkpt>
      <trkpt lat="48.2146" lon="6.8871">
        <ele>448.59</ele>
        <time>2018-02-19T14:13:57Z</time>
      </trkpt>
      <trkpt lat="48.21463" lon="6.88725">
        <ele>448.59</ele>
        <time>2018-02-19T14:14:09Z</time>
      </trkpt>
      <trkpt lat="48.21466" lon="6.88731">
        <ele>447.63</ele>
        <time>2018-02-19T14:14:17Z</time>
      </trkpt>
      <trkpt lat="48.21468" lon="6.88735">
        <ele>447.15</ele>
        <time>2018-02-19T14:14:20Z</time>
      </trkpt>
      <trkpt lat="48.21472" lon="6.88761">
        <ele>449.07</ele>
        <time>2018-02-19T14:14:33Z</time>
      </trkpt>
      <trkpt lat="48.21477" lon="6.88781">
        <ele>451.48</ele>
        <time>2018-02-19T14:14:46Z</time>
      </trkpt>
      <trkpt lat="48.21481" lon="6.88802">
        <ele>451.96</ele>
        <time>2018-02-19T14:14:59Z</time>
      </trkpt>
      <trkpt lat="48.21485" lon="6.88814">
        <ele>451</ele>
        <time>2018-02-19T14:15:07Z</time>
      </trkpt>
      <trkpt lat="48.21489" lon="6.88822">
        <ele>451</ele>
        <time>2018-02-19T14:15:13Z</time>
      </trkpt>
      <trkpt lat="48.21493" lon="6.88833">
        <ele>449.55</ele>
        <time>2018-02-19T14:15:21Z</time>
      </trkpt>
      <trkpt lat="48.21496" lon="6.88852">
        <ele>446.19</ele>
        <time>2018-02-19T14:15:36Z</time>
      </trkpt>
      <trkpt lat="48.21502" lon="6.88871">
        <ele>444.27</ele>
        <time>2018-02-19T14:15:49Z</time>
      </trkpt>
      <trkpt lat="48.21505" lon="6.88879">
        <ele>440.42</ele>
        <time>2018-02-19T14:15:56Z</time>
      </trkpt>
      <trkpt lat="48.21509" lon="6.88892">
        <ele>438.98</ele>
        <time>2018-02-19T14:16:07Z</time>
      </trkpt>
      <trkpt lat="48.21515" lon="6.88907">
        <ele>440.42</ele>
        <time>2018-02-19T14:16:19Z</time>
      </trkpt>
      <trkpt lat="48.21519" lon="6.8892">
        <ele>438.5</ele>
        <time>2018-02-19T14:16:30Z</time>
      </trkpt>
      <trkpt lat="48.21524" lon="6.88933">
        <ele>438.02</ele>
        <time>2018-02-19T14:16:42Z</time>
      </trkpt>
      <trkpt lat="48.21527" lon="6.88946">
        <ele>438.5</ele>
        <time>2018-02-19T14:16:52Z</time>
      </trkpt>
      <trkpt lat="48.21528" lon="6.88953">
        <ele>438.5</ele>
        <time>2018-02-19T14:16:56Z</time>
      </trkpt>
      <trkpt lat="48.21533" lon="6.88965">
        <ele>436.1</ele>
        <time>2018-02-19T14:17:07Z</time>
      </trkpt>
      <trkpt lat="48.21533" lon="6.88969">
        <ele>435.13</ele>
        <time>2018-02-19T14:17:09Z</time>
      </trkpt>
      <trkpt lat="48.21536" lon="6.88983">
        <ele>436.1</ele>
        <time>2018-02-19T14:17:19Z</time>
      </trkpt>
      <trkpt lat="48.21539" lon="6.8899">
        <ele>437.06</ele>
        <time>2018-02-19T14:17:24Z</time>
      </trkpt>
      <trkpt lat="48.21541" lon="6.88998">
        <ele>437.06</ele>
        <time>2018-02-19T14:17:30Z</time>
      </trkpt>
      <trkpt lat="48.21547" lon="6.89014">
        <ele>433.69</ele>
        <time>2018-02-19T14:17:44Z</time>
      </trkpt>
      <trkpt lat="48.21557" lon="6.89027">
        <ele>433.21</ele>
        <time>2018-02-19T14:17:57Z</time>
      </trkpt>
      <trkpt lat="48.21558" lon="6.89029">
        <ele>432.73</ele>
        <time>2018-02-19T14:17:59Z</time>
      </trkpt>
      <trkpt lat="48.21567" lon="6.89041">
        <ele>431.77</ele>
        <time>2018-02-19T14:18:09Z</time>
      </trkpt>
      <trkpt lat="48.21569" lon="6.89043">
        <ele>432.73</ele>
        <time>2018-02-19T14:18:12Z</time>
      </trkpt>
      <trkpt lat="48.21576" lon="6.89044">
        <ele>432.73</ele>
        <time>2018-02-19T14:18:23Z</time>
      </trkpt>
      <trkpt lat="48.21579" lon="6.89052">
        <ele>431.77</ele>
        <time>2018-02-19T14:18:44Z</time>
      </trkpt>
      <trkpt lat="48.21576" lon="6.89059">
        <ele>434.65</ele>
        <time>2018-02-19T14:19:06Z</time>
      </trkpt>
      <trkpt lat="48.21575" lon="6.89056">
        <ele>434.65</ele>
        <time>2018-02-19T14:19:35Z</time>
      </trkpt>
      <trkpt lat="48.21573" lon="6.89054">
        <ele>442.34</ele>
        <time>2018-02-19T14:20:04Z</time>
      </trkpt>
      <trkpt lat="48.21578" lon="6.89058">
        <ele>441.86</ele>
        <time>2018-02-19T14:20:33Z</time>
      </trkpt>
      <trkpt lat="48.21577" lon="6.89049">
        <ele>443.79</ele>
        <time>2018-02-19T14:21:00Z</time>
      </trkpt>
      <trkpt lat="48.21571" lon="6.89058">
        <ele>446.19</ele>
        <time>2018-02-19T14:21:36Z</time>
      </trkpt>
      <trkpt lat="48.21573" lon="6.89054">
        <ele>441.38</ele>
        <time>2018-02-19T14:21:52Z</time>
      </trkpt>
      <trkpt lat="48.21576" lon="6.89054">
        <ele>442.82</ele>
        <time>2018-02-19T14:22:07Z</time>
      </trkpt>
      <trkpt lat="48.21577" lon="6.89055">
        <ele>437.54</ele>
        <time>2018-02-19T14:22:22Z</time>
      </trkpt>
      <trkpt lat="48.21574" lon="6.89051">
        <ele>437.54</ele>
        <time>2018-02-19T14:22:36Z</time>
      </trkpt>
      <trkpt lat="48.21577" lon="6.89052">
        <ele>433.21</ele>
        <time>2018-02-19T14:22:52Z</time>
      </trkpt>
      <trkpt lat="48.21576" lon="6.89048">
        <ele>434.17</ele>
        <time>2018-02-19T14:23:10Z</time>
      </trkpt>
      <trkpt lat="48.21576" lon="6.89047">
        <ele>435.61</ele>
        <time>2018-02-19T14:23:27Z</time>
      </trkpt>
      <trkpt lat="48.21577" lon="6.89048">
        <ele>435.13</ele>
        <time>2018-02-19T14:23:41Z</time>
      </trkpt>
      <trkpt lat="48.21577" lon="6.89048">
        <ele>436.1</ele>
        <time>2018-02-19T14:23:58Z</time>
      </trkpt>
      <trkpt lat="48.2158" lon="6.89049">
        <ele>436.58</ele>
        <time>2018-02-19T14:24:05Z</time>
      </trkpt>
      <trkpt lat="48.21592" lon="6.89051">
        <ele>431.77</ele>
        <time>2018-02-19T14:24:18Z</time>
      </trkpt>
      <trkpt lat="48.21599" lon="6.89039">
        <ele>430.81</ele>
        <time>2018-02-19T14:24:31Z</time>
      </trkpt>
      <trkpt lat="48.21609" lon="6.89021">
        <ele>433.21</ele>
        <time>2018-02-19T14:24:45Z</time>
      </trkpt>
      <trkpt lat="48.21617" lon="6.89002">
        <ele>434.17</ele>
        <time>2018-02-19T14:25:00Z</time>
      </trkpt>
      <trkpt lat="48.21624" lon="6.8899">
        <ele>438.98</ele>
        <time>2018-02-19T14:25:14Z</time>
      </trkpt>
      <trkpt lat="48.21631" lon="6.88985">
        <ele>438.98</ele>
        <time>2018-02-19T14:25:26Z</time>
      </trkpt>
      <trkpt lat="48.21632" lon="6.88985">
        <ele>437.54</ele>
        <time>2018-02-19T14:25:39Z</time>
      </trkpt>
      <trkpt lat="48.2164" lon="6.88989">
        <ele>438.98</ele>
        <time>2018-02-19T14:25:56Z</time>
      </trkpt>
      <trkpt lat="48.21647" lon="6.88987">
        <ele>444.27</ele>
        <time>2018-02-19T14:26:08Z</time>
      </trkpt>
      <trkpt lat="48.21653" lon="6.88984">
        <ele>446.67</ele>
        <time>2018-02-19T14:26:19Z</time>
      </trkpt>
      <trkpt lat="48.2166" lon="6.88986">
        <ele>444.27</ele>
        <time>2018-02-19T14:26:30Z</time>
      </trkpt>
      <trkpt lat="48.21666" lon="6.88992">
        <ele>444.27</ele>
        <time>2018-02-19T14:26:41Z</time>
      </trkpt>
      <trkpt lat="48.21672" lon="6.89003">
        <ele>445.23</ele>
        <time>2018-02-19T14:26:52Z</time>
      </trkpt>
      <trkpt lat="48.21673" lon="6.89007">
        <ele>445.23</ele>
        <time>2018-02-19T14:26:55Z</time>
      </trkpt>
      <trkpt lat="48.21677" lon="6.89014">
        <ele>447.15</ele>
        <time>2018-02-19T14:27:01Z</time>
      </trkpt>
      <trkpt lat="48.21676" lon="6.89036">
        <ele>451.96</ele>
        <time>2018-02-19T14:27:15Z</time>
      </trkpt>
      <trkpt lat="48.2168" lon="6.89051">
        <ele>462.53</ele>
        <time>2018-02-19T14:27:27Z</time>
      </trkpt>
      <trkpt lat="48.21681" lon="6.89064">
        <ele>477.43</ele>
        <time>2018-02-19T14:27:37Z</time>
      </trkpt>
      <trkpt lat="48.21685" lon="6.89078">
        <ele>479.84</ele>
        <time>2018-02-19T14:27:49Z</time>
      </trkpt>
      <trkpt lat="48.21686" lon="6.89087">
        <ele>483.2</ele>
        <time>2018-02-19T14:28:03Z</time>
      </trkpt>
      <trkpt lat="48.21687" lon="6.89098">
        <ele>483.68</ele>
        <time>2018-02-19T14:28:18Z</time>
      </trkpt>
      <trkpt lat="48.2169" lon="6.89105">
        <ele>484.16</ele>
        <time>2018-02-19T14:28:30Z</time>
      </trkpt>
      <trkpt lat="48.21695" lon="6.89113">
        <ele>483.2</ele>
        <time>2018-02-19T14:28:43Z</time>
      </trkpt>
      <trkpt lat="48.21692" lon="6.89111">
        <ele>480.32</ele>
        <time>2018-02-19T14:29:04Z</time>
      </trkpt>
      <trkpt lat="48.21692" lon="6.89111">
        <ele>482.24</ele>
        <time>2018-02-19T14:29:21Z</time>
      </trkpt>
      <trkpt lat="48.21697" lon="6.89112">
        <ele>482.72</ele>
        <time>2018-02-19T14:29:46Z</time>
      </trkpt>
      <trkpt lat="48.21695" lon="6.89112">
        <ele>481.28</ele>
        <time>2018-02-19T14:30:15Z</time>
      </trkpt>
      <trkpt lat="48.21699" lon="6.89119">
        <ele>485.12</ele>
        <time>2018-02-19T14:30:40Z</time>
      </trkpt>
      <trkpt lat="48.21703" lon="6.89128">
        <ele>482.72</ele>
        <time>2018-02-19T14:30:51Z</time>
      </trkpt>
      <trkpt lat="48.21704" lon="6.89139">
        <ele>475.99</ele>
        <time>2018-02-19T14:31:02Z</time>
      </trkpt>
      <trkpt lat="48.21705" lon="6.89155">
        <ele>469.74</ele>
        <time>2018-02-19T14:31:15Z</time>
      </trkpt>
      <trkpt lat="48.21706" lon="6.8916">
        <ele>469.26</ele>
        <time>2018-02-19T14:31:18Z</time>
      </trkpt>
      <trkpt lat="48.21711" lon="6.89177">
        <ele>466.38</ele>
        <time>2018-02-19T14:31:32Z</time>
      </trkpt>
      <trkpt lat="48.21711" lon="6.89179">
        <ele>465.9</ele>
        <time>2018-02-19T14:31:33Z</time>
      </trkpt>
      <trkpt lat="48.2171" lon="6.89199">
        <ele>473.59</ele>
        <time>2018-02-19T14:31:44Z</time>
      </trkpt>
      <trkpt lat="48.21708" lon="6.89215">
        <ele>476.95</ele>
        <time>2018-02-19T14:31:55Z</time>
      </trkpt>
      <trkpt lat="48.21706" lon="6.89227">
        <ele>477.43</ele>
        <time>2018-02-19T14:32:05Z</time>
      </trkpt>
      <trkpt lat="48.21703" lon="6.89243">
        <ele>478.39</ele>
        <time>2018-02-19T14:32:17Z</time>
      </trkpt>
      <trkpt lat="48.21701" lon="6.89258">
        <ele>479.84</ele>
        <time>2018-02-19T14:32:31Z</time>
      </trkpt>
      <trkpt lat="48.21699" lon="6.89273">
        <ele>478.87</ele>
        <time>2018-02-19T14:32:44Z</time>
      </trkpt>
      <trkpt lat="48.21698" lon="6.89287">
        <ele>478.39</ele>
        <time>2018-02-19T14:32:57Z</time>
      </trkpt>
      <trkpt lat="48.21697" lon="6.89304">
        <ele>477.43</ele>
        <time>2018-02-19T14:33:11Z</time>
      </trkpt>
      <trkpt lat="48.21695" lon="6.89318">
        <ele>472.14</ele>
        <time>2018-02-19T14:33:24Z</time>
      </trkpt>
      <trkpt lat="48.21696" lon="6.89334">
        <ele>465.42</ele>
        <time>2018-02-19T14:33:37Z</time>
      </trkpt>
      <trkpt lat="48.21698" lon="6.89353">
        <ele>463.01</ele>
        <time>2018-02-19T14:33:50Z</time>
      </trkpt>
      <trkpt lat="48.21695" lon="6.8937">
        <ele>462.53</ele>
        <time>2018-02-19T14:34:02Z</time>
      </trkpt>
      <trkpt lat="48.21693" lon="6.8939">
        <ele>463.97</ele>
        <time>2018-02-19T14:34:18Z</time>
      </trkpt>
      <trkpt lat="48.21688" lon="6.89409">
        <ele>468.3</ele>
        <time>2018-02-19T14:34:31Z</time>
      </trkpt>
      <trkpt lat="48.21691" lon="6.89425">
        <ele>468.3</ele>
        <time>2018-02-19T14:34:43Z</time>
      </trkpt>
      <trkpt lat="48.21696" lon="6.8943">
        <ele>468.3</ele>
        <time>2018-02-19T14:34:49Z</time>
      </trkpt>
      <trkpt lat="48.21705" lon="6.89432">
        <ele>470.22</ele>
        <time>2018-02-19T14:35:02Z</time>
      </trkpt>
      <trkpt lat="48.21722" lon="6.89439">
        <ele>471.66</ele>
        <time>2018-02-19T14:35:15Z</time>
      </trkpt>
      <trkpt lat="48.21732" lon="6.8944">
        <ele>472.63</ele>
        <time>2018-02-19T14:35:26Z</time>
      </trkpt>
      <trkpt lat="48.21741" lon="6.89441">
        <ele>470.22</ele>
        <time>2018-02-19T14:35:37Z</time>
      </trkpt>
      <trkpt lat="48.21745" lon="6.89441">
        <ele>469.26</ele>
        <time>2018-02-19T14:35:44Z</time>
      </trkpt>
      <trkpt lat="48.21755" lon="6.8944">
        <ele>467.82</ele>
        <time>2018-02-19T14:35:55Z</time>
      </trkpt>
      <trkpt lat="48.21762" lon="6.89441">
        <ele>466.86</ele>
        <time>2018-02-19T14:36:02Z</time>
      </trkpt>
      <trkpt lat="48.21773" lon="6.89437">
        <ele>468.3</ele>
        <time>2018-02-19T14:36:13Z</time>
      </trkpt>
      <trkpt lat="48.2178" lon="6.89436">
        <ele>470.22</ele>
        <time>2018-02-19T14:36:23Z</time>
      </trkpt>
      <trkpt lat="48.21789" lon="6.89437">
        <ele>471.66</ele>
        <time>2018-02-19T14:36:34Z</time>
      </trkpt>
      <trkpt lat="48.218" lon="6.89436">
        <ele>471.66</ele>
        <time>2018-02-19T14:36:43Z</time>
      </trkpt>
      <trkpt lat="48.2181" lon="6.89435">
        <ele>469.26</ele>
        <time>2018-02-19T14:36:55Z</time>
      </trkpt>
      <trkpt lat="48.21816" lon="6.89434">
        <ele>468.3</ele>
        <time>2018-02-19T14:37:06Z</time>
      </trkpt>
      <trkpt lat="48.21819" lon="6.89433">
        <ele>465.9</ele>
        <time>2018-02-19T14:37:27Z</time>
      </trkpt>
      <trkpt lat="48.21825" lon="6.89429">
        <ele>469.26</ele>
        <time>2018-02-19T14:37:44Z</time>
      </trkpt>
      <trkpt lat="48.21827" lon="6.89432">
        <ele>474.55</ele>
        <time>2018-02-19T14:37:58Z</time>
      </trkpt>
      <trkpt lat="48.2183" lon="6.89425">
        <ele>474.55</ele>
        <time>2018-02-19T14:38:09Z</time>
      </trkpt>
      <trkpt lat="48.21832" lon="6.89432">
        <ele>473.59</ele>
        <time>2018-02-19T14:38:31Z</time>
      </trkpt>
      <trkpt lat="48.21829" lon="6.89434">
        <ele>475.51</ele>
        <time>2018-02-19T14:39:02Z</time>
      </trkpt>
      <trkpt lat="48.21831" lon="6.89428">
        <ele>477.43</ele>
        <time>2018-02-19T14:39:26Z</time>
      </trkpt>
      <trkpt lat="48.21829" lon="6.89432">
        <ele>473.11</ele>
        <time>2018-02-19T14:39:44Z</time>
      </trkpt>
      <trkpt lat="48.21834" lon="6.89435">
        <ele>474.55</ele>
        <time>2018-02-19T14:40:08Z</time>
      </trkpt>
      <trkpt lat="48.21834" lon="6.89433">
        <ele>477.43</ele>
        <time>2018-02-19T14:40:28Z</time>
      </trkpt>
      <trkpt lat="48.21836" lon="6.89433">
        <ele>478.87</ele>
        <time>2018-02-19T14:40:48Z</time>
      </trkpt>
      <trkpt lat="48.21831" lon="6.89433">
        <ele>474.55</ele>
        <time>2018-02-19T14:41:13Z</time>
      </trkpt>
      <trkpt lat="48.21824" lon="6.89437">
        <ele>475.99</ele>
        <time>2018-02-19T14:41:42Z</time>
      </trkpt>
      <trkpt lat="48.21826" lon="6.89432">
        <ele>472.63</ele>
        <time>2018-02-19T14:42:24Z</time>
      </trkpt>
      <trkpt lat="48.21821" lon="6.8944">
        <ele>478.39</ele>
        <time>2018-02-19T14:43:06Z</time>
      </trkpt>
      <trkpt lat="48.21836" lon="6.89438">
        <ele>465.9</ele>
        <time>2018-02-19T14:43:45Z</time>
      </trkpt>
      <trkpt lat="48.21835" lon="6.89437">
        <ele>461.57</ele>
        <time>2018-02-19T14:44:27Z</time>
      </trkpt>
      <trkpt lat="48.21843" lon="6.89443">
        <ele>455.8</ele>
        <time>2018-02-19T14:45:01Z</time>
      </trkpt>
      <trkpt lat="48.21824" lon="6.8943">
        <ele>463.01</ele>
        <time>2018-02-19T14:45:35Z</time>
      </trkpt>
      <trkpt lat="48.21826" lon="6.89434">
        <ele>458.21</ele>
        <time>2018-02-19T14:46:16Z</time>
      </trkpt>
      <trkpt lat="48.21828" lon="6.89436">
        <ele>465.42</ele>
        <time>2018-02-19T14:46:42Z</time>
      </trkpt>
      <trkpt lat="48.21821" lon="6.89432">
        <ele>465.9</ele>
        <time>2018-02-19T14:47:23Z</time>
      </trkpt>
      <trkpt lat="48.21825" lon="6.89434">
        <ele>470.7</ele>
        <time>2018-02-19T14:47:55Z</time>
      </trkpt>
      <trkpt lat="48.21828" lon="6.89435">
        <ele>471.66</ele>
        <time>2018-02-19T14:48:28Z</time>
      </trkpt>
      <trkpt lat="48.21837" lon="6.89437">
        <ele>475.03</ele>
        <time>2018-02-19T14:48:50Z</time>
      </trkpt>
      <trkpt lat="48.21843" lon="6.89444">
        <ele>467.82</ele>
        <time>2018-02-19T14:49:02Z</time>
      </trkpt>
      <trkpt lat="48.21847" lon="6.89463">
        <ele>465.42</ele>
        <time>2018-02-19T14:49:17Z</time>
      </trkpt>
      <trkpt lat="48.21855" lon="6.89476">
        <ele>461.57</ele>
        <time>2018-02-19T14:49:30Z</time>
      </trkpt>
      <trkpt lat="48.21861" lon="6.89492">
        <ele>456.76</ele>
        <time>2018-02-19T14:49:45Z</time>
      </trkpt>
      <trkpt lat="48.21866" lon="6.89503">
        <ele>456.28</ele>
        <time>2018-02-19T14:49:56Z</time>
      </trkpt>
      <trkpt lat="48.21871" lon="6.89513">
        <ele>456.76</ele>
        <time>2018-02-19T14:50:08Z</time>
      </trkpt>
      <trkpt lat="48.21876" lon="6.89525">
        <ele>454.84</ele>
        <time>2018-02-19T14:50:19Z</time>
      </trkpt>
      <trkpt lat="48.21881" lon="6.89539">
        <ele>454.84</ele>
        <time>2018-02-19T14:50:32Z</time>
      </trkpt>
      <trkpt lat="48.21889" lon="6.89547">
        <ele>449.55</ele>
        <time>2018-02-19T14:50:47Z</time>
      </trkpt>
      <trkpt lat="48.21894" lon="6.89555">
        <ele>442.82</ele>
        <time>2018-02-19T14:50:58Z</time>
      </trkpt>
      <trkpt lat="48.219" lon="6.89564">
        <ele>438.5</ele>
        <time>2018-02-19T14:51:09Z</time>
      </trkpt>
      <trkpt lat="48.21908" lon="6.89586">
        <ele>440.9</ele>
        <time>2018-02-19T14:51:23Z</time>
      </trkpt>
      <trkpt lat="48.21912" lon="6.89608">
        <ele>440.9</ele>
        <time>2018-02-19T14:51:38Z</time>
      </trkpt>
      <trkpt lat="48.21918" lon="6.89629">
        <ele>442.82</ele>
        <time>2018-02-19T14:51:52Z</time>
      </trkpt>
      <trkpt lat="48.21923" lon="6.89647">
        <ele>445.71</ele>
        <time>2018-02-19T14:52:06Z</time>
      </trkpt>
      <trkpt lat="48.21933" lon="6.89661">
        <ele>450.03</ele>
        <time>2018-02-19T14:52:19Z</time>
      </trkpt>
      <trkpt lat="48.21938" lon="6.89673">
        <ele>451.48</ele>
        <time>2018-02-19T14:52:30Z</time>
      </trkpt>
      <trkpt lat="48.2194" lon="6.89677">
        <ele>451.48</ele>
        <time>2018-02-19T14:52:32Z</time>
      </trkpt>
      <trkpt lat="48.21948" lon="6.89693">
        <ele>449.55</ele>
        <time>2018-02-19T14:52:45Z</time>
      </trkpt>
      <trkpt lat="48.21957" lon="6.89708">
        <ele>445.71</ele>
        <time>2018-02-19T14:52:58Z</time>
      </trkpt>
      <trkpt lat="48.21962" lon="6.89725">
        <ele>443.79</ele>
        <time>2018-02-19T14:53:09Z</time>
      </trkpt>
      <trkpt lat="48.21969" lon="6.89743">
        <ele>439.94</ele>
        <time>2018-02-19T14:53:23Z</time>
      </trkpt>
      <trkpt lat="48.21977" lon="6.89758">
        <ele>431.77</ele>
        <time>2018-02-19T14:53:37Z</time>
      </trkpt>
      <trkpt lat="48.21986" lon="6.89765">
        <ele>425.52</ele>
        <time>2018-02-19T14:53:50Z</time>
      </trkpt>
      <trkpt lat="48.21996" lon="6.89775">
        <ele>420.71</ele>
        <time>2018-02-19T14:54:03Z</time>
      </trkpt>
      <trkpt lat="48.22005" lon="6.89789">
        <ele>420.71</ele>
        <time>2018-02-19T14:54:16Z</time>
      </trkpt>
      <trkpt lat="48.22014" lon="6.898">
        <ele>420.23</ele>
        <time>2018-02-19T14:54:28Z</time>
      </trkpt>
      <trkpt lat="48.22023" lon="6.89812">
        <ele>416.87</ele>
        <time>2018-02-19T14:54:41Z</time>
      </trkpt>
      <trkpt lat="48.22036" lon="6.89825">
        <ele>414.47</ele>
        <time>2018-02-19T14:54:55Z</time>
      </trkpt>
      <trkpt lat="48.22046" lon="6.89835">
        <ele>412.54</ele>
        <time>2018-02-19T14:55:08Z</time>
      </trkpt>
      <trkpt lat="48.22054" lon="6.89844">
        <ele>411.1</ele>
        <time>2018-02-19T14:55:20Z</time>
      </trkpt>
      <trkpt lat="48.22058" lon="6.8985">
        <ele>412.54</ele>
        <time>2018-02-19T14:55:24Z</time>
      </trkpt>
      <trkpt lat="48.22068" lon="6.89863">
        <ele>413.5</ele>
        <time>2018-02-19T14:55:37Z</time>
      </trkpt>
      <trkpt lat="48.22078" lon="6.89875">
        <ele>413.5</ele>
        <time>2018-02-19T14:55:51Z</time>
      </trkpt>
      <trkpt lat="48.22088" lon="6.89887">
        <ele>411.58</ele>
        <time>2018-02-19T14:56:04Z</time>
      </trkpt>
      <trkpt lat="48.22095" lon="6.89903">
        <ele>413.5</ele>
        <time>2018-02-19T14:56:17Z</time>
      </trkpt>
      <trkpt lat="48.22105" lon="6.8992">
        <ele>413.5</ele>
        <time>2018-02-19T14:56:31Z</time>
      </trkpt>
      <trkpt lat="48.22115" lon="6.89933">
        <ele>413.5</ele>
        <time>2018-02-19T14:56:43Z</time>
      </trkpt>
      <trkpt lat="48.22121" lon="6.8994">
        <ele>413.5</ele>
        <time>2018-02-19T14:56:50Z</time>
      </trkpt>
      <trkpt lat="48.22125" lon="6.89961">
        <ele>423.12</ele>
        <time>2018-02-19T14:57:02Z</time>
      </trkpt>
      <trkpt lat="48.22134" lon="6.89974">
        <ele>424.08</ele>
        <time>2018-02-19T14:57:14Z</time>
      </trkpt>
      <trkpt lat="48.22142" lon="6.89988">
        <ele>420.71</ele>
        <time>2018-02-19T14:57:28Z</time>
      </trkpt>
      <trkpt lat="48.22151" lon="6.90001">
        <ele>416.39</ele>
        <time>2018-02-19T14:57:39Z</time>
      </trkpt>
      <trkpt lat="48.22158" lon="6.90005">
        <ele>413.98</ele>
        <time>2018-02-19T14:57:46Z</time>
      </trkpt>
      <trkpt lat="48.22169" lon="6.90017">
        <ele>417.35</ele>
        <time>2018-02-19T14:57:59Z</time>
      </trkpt>
      <trkpt lat="48.22179" lon="6.90032">
        <ele>418.31</ele>
        <time>2018-02-19T14:58:13Z</time>
      </trkpt>
      <trkpt lat="48.22185" lon="6.90036">
        <ele>415.91</ele>
        <time>2018-02-19T14:58:18Z</time>
      </trkpt>
      <trkpt lat="48.22196" lon="6.90041">
        <ele>411.1</ele>
        <time>2018-02-19T14:58:30Z</time>
      </trkpt>
      <trkpt lat="48.22196" lon="6.90042">
        <ele>411.1</ele>
        <time>2018-02-19T14:58:31Z</time>
      </trkpt>
      <trkpt lat="48.22204" lon="6.90054">
        <ele>410.62</ele>
        <time>2018-02-19T14:58:43Z</time>
      </trkpt>
      <trkpt lat="48.22216" lon="6.90063">
        <ele>406.77</ele>
        <time>2018-02-19T14:58:57Z</time>
      </trkpt>
      <trkpt lat="48.22225" lon="6.90076">
        <ele>403.41</ele>
        <time>2018-02-19T14:59:10Z</time>
      </trkpt>
      <trkpt lat="48.22232" lon="6.90102">
        <ele>410.14</ele>
        <time>2018-02-19T14:59:24Z</time>
      </trkpt>
      <trkpt lat="48.22242" lon="6.90114">
        <ele>407.26</ele>
        <time>2018-02-19T14:59:37Z</time>
      </trkpt>
      <trkpt lat="48.22243" lon="6.90119">
        <ele>406.77</ele>
        <time>2018-02-19T14:59:40Z</time>
      </trkpt>
      <trkpt lat="48.22248" lon="6.90133">
        <ele>408.22</ele>
        <time>2018-02-19T14:59:49Z</time>
      </trkpt>
      <trkpt lat="48.22252" lon="6.90136">
        <ele>408.7</ele>
        <time>2018-02-19T14:59:52Z</time>
      </trkpt>
      <trkpt lat="48.22265" lon="6.90152">
        <ele>410.62</ele>
        <time>2018-02-19T15:00:05Z</time>
      </trkpt>
      <trkpt lat="48.22269" lon="6.90166">
        <ele>409.18</ele>
        <time>2018-02-19T15:00:14Z</time>
      </trkpt>
      <trkpt lat="48.22279" lon="6.90176">
        <ele>401.49</ele>
        <time>2018-02-19T15:00:27Z</time>
      </trkpt>
      <trkpt lat="48.22286" lon="6.90186">
        <ele>394.76</ele>
        <time>2018-02-19T15:00:36Z</time>
      </trkpt>
      <trkpt lat="48.22293" lon="6.90192">
        <ele>393.8</ele>
        <time>2018-02-19T15:00:43Z</time>
      </trkpt>
      <trkpt lat="48.22298" lon="6.902">
        <ele>396.2</ele>
        <time>2018-02-19T15:00:50Z</time>
      </trkpt>
      <trkpt lat="48.22304" lon="6.90204">
        <ele>396.68</ele>
        <time>2018-02-19T15:00:56Z</time>
      </trkpt>
      <trkpt lat="48.22311" lon="6.90209">
        <ele>394.28</ele>
        <time>2018-02-19T15:01:03Z</time>
      </trkpt>
      <trkpt lat="48.22319" lon="6.90209">
        <ele>389.95</ele>
        <time>2018-02-19T15:01:11Z</time>
      </trkpt>
      <trkpt lat="48.22322" lon="6.9021">
        <ele>387.55</ele>
        <time>2018-02-19T15:01:15Z</time>
      </trkpt>
      <trkpt lat="48.22325" lon="6.90209">
        <ele>387.07</ele>
        <time>2018-02-19T15:01:17Z</time>
      </trkpt>
      <trkpt lat="48.2233" lon="6.9021">
        <ele>385.63</ele>
        <time>2018-02-19T15:01:21Z</time>
      </trkpt>
      <trkpt lat="48.22336" lon="6.9021">
        <ele>384.66</ele>
        <time>2018-02-19T15:01:25Z</time>
      </trkpt>
      <trkpt lat="48.22345" lon="6.90211">
        <ele>384.66</ele>
        <time>2018-02-19T15:01:32Z</time>
      </trkpt>
      <trkpt lat="48.22356" lon="6.90212">
        <ele>388.51</ele>
        <time>2018-02-19T15:01:41Z</time>
      </trkpt>
      <trkpt lat="48.22368" lon="6.90211">
        <ele>391.39</ele>
        <time>2018-02-19T15:01:52Z</time>
      </trkpt>
      <trkpt lat="48.2237" lon="6.9021">
        <ele>392.36</ele>
        <time>2018-02-19T15:01:54Z</time>
      </trkpt>
      <trkpt lat="48.22378" lon="6.9021">
        <ele>397.64</ele>
        <time>2018-02-19T15:02:02Z</time>
      </trkpt>
      <trkpt lat="48.22383" lon="6.90209">
        <ele>401.01</ele>
        <time>2018-02-19T15:02:07Z</time>
      </trkpt>
      <trkpt lat="48.2239" lon="6.90204">
        <ele>408.22</ele>
        <time>2018-02-19T15:02:18Z</time>
      </trkpt>
      <trkpt lat="48.22395" lon="6.90198">
        <ele>410.14</ele>
        <time>2018-02-19T15:02:25Z</time>
      </trkpt>
      <trkpt lat="48.22397" lon="6.90196">
        <ele>410.14</ele>
        <time>2018-02-19T15:02:27Z</time>
      </trkpt>
      <trkpt lat="48.22409" lon="6.90186">
        <ele>412.54</ele>
        <time>2018-02-19T15:02:39Z</time>
      </trkpt>
      <trkpt lat="48.22421" lon="6.90177">
        <ele>416.87</ele>
        <time>2018-02-19T15:02:52Z</time>
      </trkpt>
      <trkpt lat="48.22432" lon="6.90168">
        <ele>416.87</ele>
        <time>2018-02-19T15:03:02Z</time>
      </trkpt>
      <trkpt lat="48.22444" lon="6.90158">
        <ele>412.54</ele>
        <time>2018-02-19T15:03:15Z</time>
      </trkpt>
      <trkpt lat="48.22454" lon="6.90154">
        <ele>411.58</ele>
        <time>2018-02-19T15:03:24Z</time>
      </trkpt>
      <trkpt lat="48.22471" lon="6.90152">
        <ele>412.54</ele>
        <time>2018-02-19T15:03:37Z</time>
      </trkpt>
      <trkpt lat="48.22478" lon="6.90152">
        <ele>412.06</ele>
        <time>2018-02-19T15:03:44Z</time>
      </trkpt>
      <trkpt lat="48.22481" lon="6.90153">
        <ele>412.06</ele>
        <time>2018-02-19T15:03:47Z</time>
      </trkpt>
      <trkpt lat="48.22495" lon="6.90158">
        <ele>410.14</ele>
        <time>2018-02-19T15:03:59Z</time>
      </trkpt>
      <trkpt lat="48.22498" lon="6.90159">
        <ele>409.18</ele>
        <time>2018-02-19T15:04:02Z</time>
      </trkpt>
      <trkpt lat="48.22505" lon="6.90161">
        <ele>408.22</ele>
        <time>2018-02-19T15:04:08Z</time>
      </trkpt>
      <trkpt lat="48.22511" lon="6.90163">
        <ele>407.26</ele>
        <time>2018-02-19T15:04:14Z</time>
      </trkpt>
      <trkpt lat="48.22517" lon="6.90167">
        <ele>407.26</ele>
        <time>2018-02-19T15:04:20Z</time>
      </trkpt>
      <trkpt lat="48.22519" lon="6.9017">
        <ele>407.26</ele>
        <time>2018-02-19T15:04:22Z</time>
      </trkpt>
      <trkpt lat="48.22526" lon="6.90168">
        <ele>406.29</ele>
        <time>2018-02-19T15:04:28Z</time>
      </trkpt>
      <trkpt lat="48.22538" lon="6.90168">
        <ele>406.77</ele>
        <time>2018-02-19T15:04:38Z</time>
      </trkpt>
      <trkpt lat="48.22545" lon="6.90163">
        <ele>407.26</ele>
        <time>2018-02-19T15:04:49Z</time>
      </trkpt>
      <trkpt lat="48.22548" lon="6.90162">
        <ele>407.26</ele>
        <time>2018-02-19T15:04:51Z</time>
      </trkpt>
      <trkpt lat="48.22553" lon="6.9016">
        <ele>407.74</ele>
        <time>2018-02-19T15:04:55Z</time>
      </trkpt>
      <trkpt lat="48.22556" lon="6.90158">
        <ele>409.18</ele>
        <time>2018-02-19T15:04:58Z</time>
      </trkpt>
      <trkpt lat="48.22571" lon="6.90153">
        <ele>411.1</ele>
        <time>2018-02-19T15:05:10Z</time>
      </trkpt>
      <trkpt lat="48.22579" lon="6.9015">
        <ele>411.1</ele>
        <time>2018-02-19T15:05:17Z</time>
      </trkpt>
      <trkpt lat="48.22592" lon="6.90145">
        <ele>411.58</ele>
        <time>2018-02-19T15:05:29Z</time>
      </trkpt>
      <trkpt lat="48.22602" lon="6.90142">
        <ele>411.58</ele>
        <time>2018-02-19T15:05:38Z</time>
      </trkpt>
      <trkpt lat="48.22614" lon="6.90137">
        <ele>411.1</ele>
        <time>2018-02-19T15:05:48Z</time>
      </trkpt>
      <trkpt lat="48.2262" lon="6.90135">
        <ele>412.54</ele>
        <time>2018-02-19T15:05:54Z</time>
      </trkpt>
      <trkpt lat="48.22629" lon="6.90131">
        <ele>411.58</ele>
        <time>2018-02-19T15:06:02Z</time>
      </trkpt>
      <trkpt lat="48.2264" lon="6.90123">
        <ele>412.06</ele>
        <time>2018-02-19T15:06:14Z</time>
      </trkpt>
      <trkpt lat="48.2265" lon="6.90114">
        <ele>410.62</ele>
        <time>2018-02-19T15:06:26Z</time>
      </trkpt>
      <trkpt lat="48.22656" lon="6.90112">
        <ele>411.1</ele>
        <time>2018-02-19T15:06:30Z</time>
      </trkpt>
      <trkpt lat="48.22668" lon="6.90101">
        <ele>412.06</ele>
        <time>2018-02-19T15:06:40Z</time>
      </trkpt>
      <trkpt lat="48.22671" lon="6.90097">
        <ele>412.06</ele>
        <time>2018-02-19T15:06:43Z</time>
      </trkpt>
      <trkpt lat="48.22674" lon="6.90095">
        <ele>411.1</ele>
        <time>2018-02-19T15:06:46Z</time>
      </trkpt>
      <trkpt lat="48.22681" lon="6.90084">
        <ele>407.26</ele>
        <time>2018-02-19T15:06:57Z</time>
      </trkpt>
      <trkpt lat="48.22687" lon="6.90074">
        <ele>404.37</ele>
        <time>2018-02-19T15:07:10Z</time>
      </trkpt>
      <trkpt lat="48.22686" lon="6.90076">
        <ele>406.77</ele>
        <time>2018-02-19T15:07:34Z</time>
      </trkpt>
      <trkpt lat="48.22691" lon="6.90066">
        <ele>406.77</ele>
        <time>2018-02-19T15:07:56Z</time>
      </trkpt>
      <trkpt lat="48.22693" lon="6.90061">
        <ele>406.77</ele>
        <time>2018-02-19T15:08:00Z</time>
      </trkpt>
      <trkpt lat="48.22694" lon="6.90046">
        <ele>406.29</ele>
        <time>2018-02-19T15:08:13Z</time>
      </trkpt>
      <trkpt lat="48.22695" lon="6.90041">
        <ele>410.62</ele>
        <time>2018-02-19T15:08:25Z</time>
      </trkpt>
      <trkpt lat="48.22692" lon="6.90032">
        <ele>409.18</ele>
        <time>2018-02-19T15:08:34Z</time>
      </trkpt>
      <trkpt lat="48.22686" lon="6.90023">
        <ele>408.7</ele>
        <time>2018-02-19T15:08:46Z</time>
      </trkpt>
      <trkpt lat="48.22677" lon="6.90011">
        <ele>413.02</ele>
        <time>2018-02-19T15:08:59Z</time>
      </trkpt>
      <trkpt lat="48.22673" lon="6.90001">
        <ele>415.43</ele>
        <time>2018-02-19T15:09:07Z</time>
      </trkpt>
      <trkpt lat="48.22672" lon="6.89998">
        <ele>415.43</ele>
        <time>2018-02-19T15:09:10Z</time>
      </trkpt>
      <trkpt lat="48.22669" lon="6.89991">
        <ele>414.95</ele>
        <time>2018-02-19T15:09:14Z</time>
      </trkpt>
      <trkpt lat="48.22664" lon="6.89977">
        <ele>413.98</ele>
        <time>2018-02-19T15:09:26Z</time>
      </trkpt>
      <trkpt lat="48.22656" lon="6.89961">
        <ele>412.06</ele>
        <time>2018-02-19T15:09:39Z</time>
      </trkpt>
      <trkpt lat="48.2265" lon="6.8995">
        <ele>413.5</ele>
        <time>2018-02-19T15:09:52Z</time>
      </trkpt>
      <trkpt lat="48.22645" lon="6.89935">
        <ele>416.39</ele>
        <time>2018-02-19T15:10:05Z</time>
      </trkpt>
      <trkpt lat="48.22641" lon="6.89925">
        <ele>419.75</ele>
        <time>2018-02-19T15:10:12Z</time>
      </trkpt>
      <trkpt lat="48.22637" lon="6.89915">
        <ele>422.16</ele>
        <time>2018-02-19T15:10:21Z</time>
      </trkpt>
      <trkpt lat="48.22634" lon="6.89909">
        <ele>422.64</ele>
        <time>2018-02-19T15:10:26Z</time>
      </trkpt>
      <trkpt lat="48.22631" lon="6.89898">
        <ele>424.08</ele>
        <time>2018-02-19T15:10:37Z</time>
      </trkpt>
      <trkpt lat="48.22628" lon="6.89896">
        <ele>424.56</ele>
        <time>2018-02-19T15:10:44Z</time>
      </trkpt>
      <trkpt lat="48.22627" lon="6.89893">
        <ele>425.04</ele>
        <time>2018-02-19T15:10:47Z</time>
      </trkpt>
      <trkpt lat="48.22621" lon="6.89876">
        <ele>425.52</ele>
        <time>2018-02-19T15:11:00Z</time>
      </trkpt>
      <trkpt lat="48.22614" lon="6.89866">
        <ele>425.04</ele>
        <time>2018-02-19T15:11:10Z</time>
      </trkpt>
      <trkpt lat="48.2261" lon="6.89854">
        <ele>426.96</ele>
        <time>2018-02-19T15:11:21Z</time>
      </trkpt>
      <trkpt lat="48.22605" lon="6.89845">
        <ele>429.37</ele>
        <time>2018-02-19T15:11:32Z</time>
      </trkpt>
      <trkpt lat="48.22605" lon="6.89843">
        <ele>429.85</ele>
        <time>2018-02-19T15:11:34Z</time>
      </trkpt>
      <trkpt lat="48.22603" lon="6.89837">
        <ele>430.33</ele>
        <time>2018-02-19T15:11:39Z</time>
      </trkpt>
      <trkpt lat="48.22601" lon="6.89832">
        <ele>431.29</ele>
        <time>2018-02-19T15:11:43Z</time>
      </trkpt>
      <trkpt lat="48.22598" lon="6.89828">
        <ele>430.81</ele>
        <time>2018-02-19T15:11:47Z</time>
      </trkpt>
      <trkpt lat="48.22595" lon="6.89824">
        <ele>431.29</ele>
        <time>2018-02-19T15:11:50Z</time>
      </trkpt>
      <trkpt lat="48.22585" lon="6.89812">
        <ele>432.73</ele>
        <time>2018-02-19T15:12:03Z</time>
      </trkpt>
      <trkpt lat="48.22572" lon="6.89809">
        <ele>434.65</ele>
        <time>2018-02-19T15:12:15Z</time>
      </trkpt>
      <trkpt lat="48.22568" lon="6.89807">
        <ele>434.17</ele>
        <time>2018-02-19T15:12:20Z</time>
      </trkpt>
      <trkpt lat="48.22557" lon="6.89805">
        <ele>431.29</ele>
        <time>2018-02-19T15:12:32Z</time>
      </trkpt>
      <trkpt lat="48.22548" lon="6.89808">
        <ele>432.73</ele>
        <time>2018-02-19T15:12:43Z</time>
      </trkpt>
      <trkpt lat="48.22539" lon="6.89806">
        <ele>432.73</ele>
        <time>2018-02-19T15:12:54Z</time>
      </trkpt>
      <trkpt lat="48.22536" lon="6.89805">
        <ele>432.25</ele>
        <time>2018-02-19T15:12:56Z</time>
      </trkpt>
      <trkpt lat="48.22523" lon="6.89803">
        <ele>434.65</ele>
        <time>2018-02-19T15:13:08Z</time>
      </trkpt>
      <trkpt lat="48.2252" lon="6.89801">
        <ele>435.13</ele>
        <time>2018-02-19T15:13:12Z</time>
      </trkpt>
      <trkpt lat="48.22513" lon="6.89791">
        <ele>438.5</ele>
        <time>2018-02-19T15:13:24Z</time>
      </trkpt>
      <trkpt lat="48.22504" lon="6.8978">
        <ele>441.38</ele>
        <time>2018-02-19T15:13:34Z</time>
      </trkpt>
      <trkpt lat="48.22501" lon="6.89779">
        <ele>441.38</ele>
        <time>2018-02-19T15:13:36Z</time>
      </trkpt>
      <trkpt lat="48.22496" lon="6.89775">
        <ele>441.86</ele>
        <time>2018-02-19T15:13:43Z</time>
      </trkpt>
      <trkpt lat="48.22488" lon="6.8976">
        <ele>445.71</ele>
        <time>2018-02-19T15:13:55Z</time>
      </trkpt>
      <trkpt lat="48.22482" lon="6.89745">
        <ele>445.23</ele>
        <time>2018-02-19T15:14:07Z</time>
      </trkpt>
      <trkpt lat="48.22482" lon="6.89744">
        <ele>444.75</ele>
        <time>2018-02-19T15:14:08Z</time>
      </trkpt>
      <trkpt lat="48.22478" lon="6.89731">
        <ele>447.15</ele>
        <time>2018-02-19T15:14:19Z</time>
      </trkpt>
      <trkpt lat="48.22476" lon="6.89723">
        <ele>446.19</ele>
        <time>2018-02-19T15:14:28Z</time>
      </trkpt>
      <trkpt lat="48.2247" lon="6.89709">
        <ele>445.23</ele>
        <time>2018-02-19T15:14:43Z</time>
      </trkpt>
      <trkpt lat="48.22471" lon="6.89703">
        <ele>445.23</ele>
        <time>2018-02-19T15:14:53Z</time>
      </trkpt>
      <trkpt lat="48.22469" lon="6.89692">
        <ele>443.79</ele>
        <time>2018-02-19T15:15:07Z</time>
      </trkpt>
      <trkpt lat="48.22464" lon="6.89668">
        <ele>445.23</ele>
        <time>2018-02-19T15:15:19Z</time>
      </trkpt>
      <trkpt lat="48.22461" lon="6.89651">
        <ele>446.19</ele>
        <time>2018-02-19T15:15:33Z</time>
      </trkpt>
      <trkpt lat="48.22456" lon="6.8964">
        <ele>445.23</ele>
        <time>2018-02-19T15:15:44Z</time>
      </trkpt>
      <trkpt lat="48.22453" lon="6.89621">
        <ele>444.27</ele>
        <time>2018-02-19T15:15:56Z</time>
      </trkpt>
      <trkpt lat="48.2245" lon="6.89605">
        <ele>444.27</ele>
        <time>2018-02-19T15:16:07Z</time>
      </trkpt>
      <trkpt lat="48.22448" lon="6.89599">
        <ele>444.75</ele>
        <time>2018-02-19T15:16:11Z</time>
      </trkpt>
      <trkpt lat="48.22444" lon="6.89577">
        <ele>444.75</ele>
        <time>2018-02-19T15:16:23Z</time>
      </trkpt>
      <trkpt lat="48.22439" lon="6.89559">
        <ele>446.67</ele>
        <time>2018-02-19T15:16:35Z</time>
      </trkpt>
      <trkpt lat="48.22438" lon="6.89548">
        <ele>445.71</ele>
        <time>2018-02-19T15:16:43Z</time>
      </trkpt>
      <trkpt lat="48.22436" lon="6.89543">
        <ele>445.71</ele>
        <time>2018-02-19T15:16:47Z</time>
      </trkpt>
      <trkpt lat="48.22431" lon="6.89528">
        <ele>444.27</ele>
        <time>2018-02-19T15:17:00Z</time>
      </trkpt>
      <trkpt lat="48.22427" lon="6.89513">
        <ele>444.75</ele>
        <time>2018-02-19T15:17:11Z</time>
      </trkpt>
      <trkpt lat="48.22426" lon="6.89512">
        <ele>444.75</ele>
        <time>2018-02-19T15:17:12Z</time>
      </trkpt>
      <trkpt lat="48.22418" lon="6.89491">
        <ele>446.67</ele>
        <time>2018-02-19T15:17:25Z</time>
      </trkpt>
      <trkpt lat="48.22415" lon="6.89484">
        <ele>447.15</ele>
        <time>2018-02-19T15:17:29Z</time>
      </trkpt>
      <trkpt lat="48.22413" lon="6.8948">
        <ele>448.11</ele>
        <time>2018-02-19T15:17:32Z</time>
      </trkpt>
      <trkpt lat="48.2241" lon="6.89471">
        <ele>449.55</ele>
        <time>2018-02-19T15:17:38Z</time>
      </trkpt>
      <trkpt lat="48.22409" lon="6.89469">
        <ele>449.55</ele>
        <time>2018-02-19T15:17:40Z</time>
      </trkpt>
      <trkpt lat="48.22407" lon="6.89466">
        <ele>449.55</ele>
        <time>2018-02-19T15:17:42Z</time>
      </trkpt>
      <trkpt lat="48.22402" lon="6.89453">
        <ele>449.55</ele>
        <time>2018-02-19T15:17:52Z</time>
      </trkpt>
      <trkpt lat="48.22393" lon="6.89442">
        <ele>447.63</ele>
        <time>2018-02-19T15:18:06Z</time>
      </trkpt>
      <trkpt lat="48.22391" lon="6.8944">
        <ele>447.15</ele>
        <time>2018-02-19T15:18:09Z</time>
      </trkpt>
      <trkpt lat="48.22382" lon="6.8943">
        <ele>445.71</ele>
        <time>2018-02-19T15:18:21Z</time>
      </trkpt>
      <trkpt lat="48.22374" lon="6.89417">
        <ele>447.15</ele>
        <time>2018-02-19T15:18:33Z</time>
      </trkpt>
      <trkpt lat="48.22373" lon="6.89415">
        <ele>447.15</ele>
        <time>2018-02-19T15:18:34Z</time>
      </trkpt>
      <trkpt lat="48.22364" lon="6.89402">
        <ele>450.52</ele>
        <time>2018-02-19T15:18:48Z</time>
      </trkpt>
      <trkpt lat="48.22359" lon="6.8939">
        <ele>451</ele>
        <time>2018-02-19T15:19:01Z</time>
      </trkpt>
      <trkpt lat="48.22353" lon="6.89379">
        <ele>453.4</ele>
        <time>2018-02-19T15:19:12Z</time>
      </trkpt>
      <trkpt lat="48.22348" lon="6.8937">
        <ele>453.4</ele>
        <time>2018-02-19T15:19:18Z</time>
      </trkpt>
      <trkpt lat="48.22346" lon="6.89367">
        <ele>453.4</ele>
        <time>2018-02-19T15:19:20Z</time>
      </trkpt>
      <trkpt lat="48.22338" lon="6.89353">
        <ele>456.28</ele>
        <time>2018-02-19T15:19:32Z</time>
      </trkpt>
      <trkpt lat="48.22329" lon="6.89343">
        <ele>456.76</ele>
        <time>2018-02-19T15:19:48Z</time>
      </trkpt>
      <trkpt lat="48.22322" lon="6.89327">
        <ele>456.76</ele>
        <time>2018-02-19T15:20:03Z</time>
      </trkpt>
      <trkpt lat="48.22315" lon="6.89313">
        <ele>458.21</ele>
        <time>2018-02-19T15:20:15Z</time>
      </trkpt>
      <trkpt lat="48.22309" lon="6.89293">
        <ele>459.65</ele>
        <time>2018-02-19T15:20:32Z</time>
      </trkpt>
      <trkpt lat="48.22306" lon="6.8928">
        <ele>461.09</ele>
        <time>2018-02-19T15:20:41Z</time>
      </trkpt>
      <trkpt lat="48.22301" lon="6.89269">
        <ele>463.01</ele>
        <time>2018-02-19T15:20:53Z</time>
      </trkpt>
      <trkpt lat="48.22298" lon="6.89259">
        <ele>462.53</ele>
        <time>2018-02-19T15:21:05Z</time>
      </trkpt>
      <trkpt lat="48.22295" lon="6.89249">
        <ele>461.09</ele>
        <time>2018-02-19T15:21:15Z</time>
      </trkpt>
      <trkpt lat="48.2229" lon="6.8924">
        <ele>462.53</ele>
        <time>2018-02-19T15:21:24Z</time>
      </trkpt>
      <trkpt lat="48.22284" lon="6.89229">
        <ele>463.01</ele>
        <time>2018-02-19T15:21:35Z</time>
      </trkpt>
      <trkpt lat="48.22279" lon="6.8922">
        <ele>463.97</ele>
        <time>2018-02-19T15:21:47Z</time>
      </trkpt>
      <trkpt lat="48.22278" lon="6.89217">
        <ele>463.49</ele>
        <time>2018-02-19T15:21:50Z</time>
      </trkpt>
      <trkpt lat="48.22275" lon="6.89207">
        <ele>462.53</ele>
        <time>2018-02-19T15:22:03Z</time>
      </trkpt>
      <trkpt lat="48.22271" lon="6.89199">
        <ele>462.53</ele>
        <time>2018-02-19T15:22:13Z</time>
      </trkpt>
      <trkpt lat="48.22273" lon="6.89197">
        <ele>465.42</ele>
        <time>2018-02-19T15:22:26Z</time>
      </trkpt>
      <trkpt lat="48.22277" lon="6.89197">
        <ele>466.86</ele>
        <time>2018-02-19T15:22:47Z</time>
      </trkpt>
      <trkpt lat="48.22275" lon="6.89197">
        <ele>468.78</ele>
        <time>2018-02-19T15:23:10Z</time>
      </trkpt>
      <trkpt lat="48.22279" lon="6.89192">
        <ele>469.26</ele>
        <time>2018-02-19T15:23:30Z</time>
      </trkpt>
      <trkpt lat="48.2228" lon="6.89193">
        <ele>471.66</ele>
        <time>2018-02-19T15:23:53Z</time>
      </trkpt>
      <trkpt lat="48.22272" lon="6.89189">
        <ele>469.74</ele>
        <time>2018-02-19T15:24:05Z</time>
      </trkpt>
      <trkpt lat="48.22276" lon="6.89185">
        <ele>468.3</ele>
        <time>2018-02-19T15:24:17Z</time>
      </trkpt>
      <trkpt lat="48.22281" lon="6.89185">
        <ele>466.38</ele>
        <time>2018-02-19T15:24:24Z</time>
      </trkpt>
      <trkpt lat="48.22288" lon="6.8918">
        <ele>464.45</ele>
        <time>2018-02-19T15:24:34Z</time>
      </trkpt>
      <trkpt lat="48.22298" lon="6.89171">
        <ele>461.57</ele>
        <time>2018-02-19T15:24:47Z</time>
      </trkpt>
      <trkpt lat="48.22305" lon="6.89165">
        <ele>461.57</ele>
        <time>2018-02-19T15:24:54Z</time>
      </trkpt>
      <trkpt lat="48.22315" lon="6.89155">
        <ele>462.05</ele>
        <time>2018-02-19T15:25:06Z</time>
      </trkpt>
      <trkpt lat="48.2232" lon="6.89149">
        <ele>458.69</ele>
        <time>2018-02-19T15:25:15Z</time>
      </trkpt>
      <trkpt lat="48.22327" lon="6.8914">
        <ele>454.36</ele>
        <time>2018-02-19T15:25:27Z</time>
      </trkpt>
      <trkpt lat="48.22333" lon="6.89136">
        <ele>451.96</ele>
        <time>2018-02-19T15:25:34Z</time>
      </trkpt>
      <trkpt lat="48.22336" lon="6.89135">
        <ele>452.44</ele>
        <time>2018-02-19T15:25:36Z</time>
      </trkpt>
      <trkpt lat="48.22352" lon="6.89136">
        <ele>455.32</ele>
        <time>2018-02-19T15:25:49Z</time>
      </trkpt>
      <trkpt lat="48.2236" lon="6.89137">
        <ele>455.8</ele>
        <time>2018-02-19T15:25:56Z</time>
      </trkpt>
      <trkpt lat="48.22363" lon="6.89137">
        <ele>455.32</ele>
        <time>2018-02-19T15:25:59Z</time>
      </trkpt>
      <trkpt lat="48.2237" lon="6.89138">
        <ele>454.36</ele>
        <time>2018-02-19T15:26:07Z</time>
      </trkpt>
      <trkpt lat="48.22386" lon="6.89141">
        <ele>455.32</ele>
        <time>2018-02-19T15:26:20Z</time>
      </trkpt>
      <trkpt lat="48.22391" lon="6.89136">
        <ele>455.32</ele>
        <time>2018-02-19T15:26:26Z</time>
      </trkpt>
      <trkpt lat="48.22392" lon="6.89117">
        <ele>456.28</ele>
        <time>2018-02-19T15:26:38Z</time>
      </trkpt>
      <trkpt lat="48.2239" lon="6.89107">
        <ele>456.76</ele>
        <time>2018-02-19T15:26:45Z</time>
      </trkpt>
      <trkpt lat="48.22388" lon="6.89097">
        <ele>458.69</ele>
        <time>2018-02-19T15:26:51Z</time>
      </trkpt>
      <trkpt lat="48.22385" lon="6.89079">
        <ele>460.61</ele>
        <time>2018-02-19T15:27:03Z</time>
      </trkpt>
      <trkpt lat="48.2238" lon="6.89068">
        <ele>462.05</ele>
        <time>2018-02-19T15:27:11Z</time>
      </trkpt>
      <trkpt lat="48.22374" lon="6.89049">
        <ele>461.57</ele>
        <time>2018-02-19T15:27:24Z</time>
      </trkpt>
      <trkpt lat="48.22372" lon="6.89044">
        <ele>462.05</ele>
        <time>2018-02-19T15:27:30Z</time>
      </trkpt>
      <trkpt lat="48.22371" lon="6.89036">
        <ele>462.05</ele>
        <time>2018-02-19T15:27:35Z</time>
      </trkpt>
      <trkpt lat="48.22371" lon="6.89028">
        <ele>462.05</ele>
        <time>2018-02-19T15:27:40Z</time>
      </trkpt>
      <trkpt lat="48.2237" lon="6.89025">
        <ele>462.05</ele>
        <time>2018-02-19T15:27:42Z</time>
      </trkpt>
      <trkpt lat="48.22371" lon="6.89014">
        <ele>462.53</ele>
        <time>2018-02-19T15:27:48Z</time>
      </trkpt>
      <trkpt lat="48.22376" lon="6.89003">
        <ele>464.45</ele>
        <time>2018-02-19T15:28:00Z</time>
      </trkpt>
      <trkpt lat="48.22391" lon="6.89003">
        <ele>467.82</ele>
        <time>2018-02-19T15:28:13Z</time>
      </trkpt>
      <trkpt lat="48.22408" lon="6.89012">
        <ele>464.93</ele>
        <time>2018-02-19T15:28:26Z</time>
      </trkpt>
      <trkpt lat="48.2241" lon="6.89013">
        <ele>463.97</ele>
        <time>2018-02-19T15:28:28Z</time>
      </trkpt>
      <trkpt lat="48.22416" lon="6.89015">
        <ele>460.61</ele>
        <time>2018-02-19T15:28:34Z</time>
      </trkpt>
      <trkpt lat="48.22426" lon="6.89019">
        <ele>456.28</ele>
        <time>2018-02-19T15:28:45Z</time>
      </trkpt>
      <trkpt lat="48.22432" lon="6.89022">
        <ele>456.28</ele>
        <time>2018-02-19T15:28:49Z</time>
      </trkpt>
      <trkpt lat="48.22439" lon="6.89021">
        <ele>454.84</ele>
        <time>2018-02-19T15:28:56Z</time>
      </trkpt>
      <trkpt lat="48.22443" lon="6.89022">
        <ele>454.36</ele>
        <time>2018-02-19T15:29:00Z</time>
      </trkpt>
      <trkpt lat="48.22447" lon="6.89025">
        <ele>453.88</ele>
        <time>2018-02-19T15:29:03Z</time>
      </trkpt>
      <trkpt lat="48.22452" lon="6.89026">
        <ele>452.44</ele>
        <time>2018-02-19T15:29:08Z</time>
      </trkpt>
      <trkpt lat="48.22462" lon="6.8903">
        <ele>448.59</ele>
        <time>2018-02-19T15:29:17Z</time>
      </trkpt>
      <trkpt lat="48.22477" lon="6.89031">
        <ele>445.71</ele>
        <time>2018-02-19T15:29:29Z</time>
      </trkpt>
      <trkpt lat="48.22489" lon="6.89038">
        <ele>440.42</ele>
        <time>2018-02-19T15:29:39Z</time>
      </trkpt>
      <trkpt lat="48.22492" lon="6.8904">
        <ele>440.9</ele>
        <time>2018-02-19T15:29:42Z</time>
      </trkpt>
      <trkpt lat="48.22505" lon="6.89052">
        <ele>438.02</ele>
        <time>2018-02-19T15:29:55Z</time>
      </trkpt>
      <trkpt lat="48.2251" lon="6.89053">
        <ele>437.06</ele>
        <time>2018-02-19T15:30:01Z</time>
      </trkpt>
      <trkpt lat="48.22518" lon="6.89054">
        <ele>435.13</ele>
        <time>2018-02-19T15:30:10Z</time>
      </trkpt>
      <trkpt lat="48.22523" lon="6.89053">
        <ele>433.21</ele>
        <time>2018-02-19T15:30:14Z</time>
      </trkpt>
      <trkpt lat="48.22525" lon="6.89053">
        <ele>432.73</ele>
        <time>2018-02-19T15:30:16Z</time>
      </trkpt>
      <trkpt lat="48.22537" lon="6.89053">
        <ele>428.4</ele>
        <time>2018-02-19T15:30:28Z</time>
      </trkpt>
      <trkpt lat="48.22548" lon="6.89054">
        <ele>425.52</ele>
        <time>2018-02-19T15:30:39Z</time>
      </trkpt>
      <trkpt lat="48.22549" lon="6.89053">
        <ele>425.04</ele>
        <time>2018-02-19T15:30:40Z</time>
      </trkpt>
      <trkpt lat="48.2257" lon="6.89049">
        <ele>423.6</ele>
        <time>2018-02-19T15:30:55Z</time>
      </trkpt>
      <trkpt lat="48.22584" lon="6.89046">
        <ele>417.83</ele>
        <time>2018-02-19T15:31:08Z</time>
      </trkpt>
      <trkpt lat="48.22607" lon="6.89045">
        <ele>420.71</ele>
        <time>2018-02-19T15:31:25Z</time>
      </trkpt>
      <trkpt lat="48.2263" lon="6.89039">
        <ele>426.48</ele>
        <time>2018-02-19T15:31:42Z</time>
      </trkpt>
      <trkpt lat="48.22646" lon="6.8903">
        <ele>428.89</ele>
        <time>2018-02-19T15:31:57Z</time>
      </trkpt>
      <trkpt lat="48.22659" lon="6.89018">
        <ele>430.33</ele>
        <time>2018-02-19T15:32:12Z</time>
      </trkpt>
      <trkpt lat="48.22667" lon="6.89011">
        <ele>425.04</ele>
        <time>2018-02-19T15:32:26Z</time>
      </trkpt>
      <trkpt lat="48.22686" lon="6.88999">
        <ele>426</ele>
        <time>2018-02-19T15:32:43Z</time>
      </trkpt>
      <trkpt lat="48.22703" lon="6.88986">
        <ele>425.04</ele>
        <time>2018-02-19T15:33:01Z</time>
      </trkpt>
      <trkpt lat="48.22716" lon="6.88977">
        <ele>422.64</ele>
        <time>2018-02-19T15:33:16Z</time>
      </trkpt>
      <trkpt lat="48.22732" lon="6.88966">
        <ele>420.71</ele>
        <time>2018-02-19T15:33:33Z</time>
      </trkpt>
      <trkpt lat="48.22747" lon="6.88953">
        <ele>418.79</ele>
        <time>2018-02-19T15:33:50Z</time>
      </trkpt>
      <trkpt lat="48.22763" lon="6.8894">
        <ele>418.79</ele>
        <time>2018-02-19T15:34:06Z</time>
      </trkpt>
      <trkpt lat="48.22781" lon="6.8893">
        <ele>418.79</ele>
        <time>2018-02-19T15:34:24Z</time>
      </trkpt>
      <trkpt lat="48.22799" lon="6.88929">
        <ele>418.79</ele>
        <time>2018-02-19T15:34:39Z</time>
      </trkpt>
      <trkpt lat="48.2281" lon="6.88932">
        <ele>416.39</ele>
        <time>2018-02-19T15:34:50Z</time>
      </trkpt>
      <trkpt lat="48.22827" lon="6.88946">
        <ele>414.47</ele>
        <time>2018-02-19T15:35:07Z</time>
      </trkpt>
      <trkpt lat="48.22837" lon="6.88956">
        <ele>411.58</ele>
        <time>2018-02-19T15:35:19Z</time>
      </trkpt>
      <trkpt lat="48.22852" lon="6.88976">
        <ele>407.74</ele>
        <time>2018-02-19T15:35:37Z</time>
      </trkpt>
      <trkpt lat="48.22863" lon="6.88989">
        <ele>403.41</ele>
        <time>2018-02-19T15:35:51Z</time>
      </trkpt>
      <trkpt lat="48.22876" lon="6.89004">
        <ele>403.41</ele>
        <time>2018-02-19T15:36:07Z</time>
      </trkpt>
      <trkpt lat="48.2289" lon="6.89016">
        <ele>402.45</ele>
        <time>2018-02-19T15:36:22Z</time>
      </trkpt>
      <trkpt lat="48.22904" lon="6.89029">
        <ele>402.45</ele>
        <time>2018-02-19T15:36:37Z</time>
      </trkpt>
      <trkpt lat="48.22914" lon="6.89038">
        <ele>402.93</ele>
        <time>2018-02-19T15:36:46Z</time>
      </trkpt>
      <trkpt lat="48.2292" lon="6.89045">
        <ele>402.45</ele>
        <time>2018-02-19T15:36:53Z</time>
      </trkpt>
      <trkpt lat="48.2293" lon="6.89052">
        <ele>401.97</ele>
        <time>2018-02-19T15:37:05Z</time>
      </trkpt>
      <trkpt lat="48.22934" lon="6.89058">
        <ele>402.45</ele>
        <time>2018-02-19T15:37:15Z</time>
      </trkpt>
      <trkpt lat="48.22944" lon="6.89064">
        <ele>399.57</ele>
        <time>2018-02-19T15:37:28Z</time>
      </trkpt>
      <trkpt lat="48.22946" lon="6.89065">
        <ele>399.08</ele>
        <time>2018-02-19T15:37:31Z</time>
      </trkpt>
      <trkpt lat="48.22955" lon="6.89066">
        <ele>397.64</ele>
        <time>2018-02-19T15:37:41Z</time>
      </trkpt>
      <trkpt lat="48.22967" lon="6.89066">
        <ele>397.16</ele>
        <time>2018-02-19T15:37:54Z</time>
      </trkpt>
      <trkpt lat="48.22979" lon="6.89062">
        <ele>396.68</ele>
        <time>2018-02-19T15:38:07Z</time>
      </trkpt>
      <trkpt lat="48.22993" lon="6.89063">
        <ele>396.68</ele>
        <time>2018-02-19T15:38:18Z</time>
      </trkpt>
      <trkpt lat="48.22994" lon="6.89065">
        <ele>396.2</ele>
        <time>2018-02-19T15:38:19Z</time>
      </trkpt>
      <trkpt lat="48.23019" lon="6.89073">
        <ele>401.01</ele>
        <time>2018-02-19T15:38:35Z</time>
      </trkpt>
      <trkpt lat="48.23034" lon="6.89077">
        <ele>401.97</ele>
        <time>2018-02-19T15:38:48Z</time>
      </trkpt>
      <trkpt lat="48.2305" lon="6.89081">
        <ele>402.93</ele>
        <time>2018-02-19T15:39:05Z</time>
      </trkpt>
      <trkpt lat="48.23053" lon="6.89082">
        <ele>402.93</ele>
        <time>2018-02-19T15:39:07Z</time>
      </trkpt>
      <trkpt lat="48.23056" lon="6.89085">
        <ele>401.97</ele>
        <time>2018-02-19T15:39:10Z</time>
      </trkpt>
      <trkpt lat="48.23069" lon="6.89091">
        <ele>401.01</ele>
        <time>2018-02-19T15:39:20Z</time>
      </trkpt>
      <trkpt lat="48.23078" lon="6.89094">
        <ele>400.53</ele>
        <time>2018-02-19T15:39:29Z</time>
      </trkpt>
      <trkpt lat="48.23079" lon="6.89095">
        <ele>400.53</ele>
        <time>2018-02-19T15:39:30Z</time>
      </trkpt>
      <trkpt lat="48.23096" lon="6.89101">
        <ele>400.53</ele>
        <time>2018-02-19T15:39:43Z</time>
      </trkpt>
      <trkpt lat="48.231" lon="6.89102">
        <ele>399.08</ele>
        <time>2018-02-19T15:39:47Z</time>
      </trkpt>
      <trkpt lat="48.23111" lon="6.89107">
        <ele>399.57</ele>
        <time>2018-02-19T15:39:57Z</time>
      </trkpt>
      <trkpt lat="48.23127" lon="6.89113">
        <ele>398.6</ele>
        <time>2018-02-19T15:40:10Z</time>
      </trkpt>
      <trkpt lat="48.23136" lon="6.89118">
        <ele>399.08</ele>
        <time>2018-02-19T15:40:17Z</time>
      </trkpt>
      <trkpt lat="48.23147" lon="6.89128">
        <ele>398.6</ele>
        <time>2018-02-19T15:40:29Z</time>
      </trkpt>
      <trkpt lat="48.23154" lon="6.89143">
        <ele>396.68</ele>
        <time>2018-02-19T15:40:46Z</time>
      </trkpt>
      <trkpt lat="48.23157" lon="6.89152">
        <ele>398.12</ele>
        <time>2018-02-19T15:40:59Z</time>
      </trkpt>
      <trkpt lat="48.23158" lon="6.89156">
        <ele>401.01</ele>
        <time>2018-02-19T15:41:17Z</time>
      </trkpt>
      <trkpt lat="48.23165" lon="6.8916">
        <ele>399.57</ele>
        <time>2018-02-19T15:41:29Z</time>
      </trkpt>
      <trkpt lat="48.23175" lon="6.89158">
        <ele>396.68</ele>
        <time>2018-02-19T15:41:40Z</time>
      </trkpt>
      <trkpt lat="48.23179" lon="6.89153">
        <ele>398.12</ele>
        <time>2018-02-19T15:41:50Z</time>
      </trkpt>
      <trkpt lat="48.23179" lon="6.89151">
        <ele>400.05</ele>
        <time>2018-02-19T15:42:08Z</time>
      </trkpt>
      <trkpt lat="48.23178" lon="6.89141">
        <ele>401.49</ele>
        <time>2018-02-19T15:42:21Z</time>
      </trkpt>
      <trkpt lat="48.2318" lon="6.89109">
        <ele>401.01</ele>
        <time>2018-02-19T15:42:39Z</time>
      </trkpt>
      <trkpt lat="48.23179" lon="6.89105">
        <ele>400.53</ele>
        <time>2018-02-19T15:42:42Z</time>
      </trkpt>
      <trkpt lat="48.23178" lon="6.89086">
        <ele>399.08</ele>
        <time>2018-02-19T15:42:53Z</time>
      </trkpt>
      <trkpt lat="48.23177" lon="6.89067">
        <ele>399.57</ele>
        <time>2018-02-19T15:43:03Z</time>
      </trkpt>
      <trkpt lat="48.23177" lon="6.89052">
        <ele>399.57</ele>
        <time>2018-02-19T15:43:11Z</time>
      </trkpt>
      <trkpt lat="48.2318" lon="6.89044">
        <ele>399.08</ele>
        <time>2018-02-19T15:43:16Z</time>
      </trkpt>
      <trkpt lat="48.23182" lon="6.89029">
        <ele>400.53</ele>
        <time>2018-02-19T15:43:24Z</time>
      </trkpt>
      <trkpt lat="48.23183" lon="6.89016">
        <ele>401.49</ele>
        <time>2018-02-19T15:43:32Z</time>
      </trkpt>
      <trkpt lat="48.23183" lon="6.88995">
        <ele>403.41</ele>
        <time>2018-02-19T15:43:45Z</time>
      </trkpt>
      <trkpt lat="48.23183" lon="6.88987">
        <ele>403.41</ele>
        <time>2018-02-19T15:43:49Z</time>
      </trkpt>
      <trkpt lat="48.23181" lon="6.88973">
        <ele>402.45</ele>
        <time>2018-02-19T15:43:57Z</time>
      </trkpt>
      <trkpt lat="48.23179" lon="6.88955">
        <ele>403.89</ele>
        <time>2018-02-19T15:44:07Z</time>
      </trkpt>
      <trkpt lat="48.23178" lon="6.88937">
        <ele>403.89</ele>
        <time>2018-02-19T15:44:17Z</time>
      </trkpt>
      <trkpt lat="48.23179" lon="6.8892">
        <ele>403.41</ele>
        <time>2018-02-19T15:44:27Z</time>
      </trkpt>
      <trkpt lat="48.23183" lon="6.88912">
        <ele>402.93</ele>
        <time>2018-02-19T15:44:32Z</time>
      </trkpt>
      <trkpt lat="48.23184" lon="6.88907">
        <ele>402.93</ele>
        <time>2018-02-19T15:44:35Z</time>
      </trkpt>
      <trkpt lat="48.23188" lon="6.88898">
        <ele>404.37</ele>
        <time>2018-02-19T15:44:41Z</time>
      </trkpt>
      <trkpt lat="48.2319" lon="6.88888">
        <ele>404.37</ele>
        <time>2018-02-19T15:44:47Z</time>
      </trkpt>
      <trkpt lat="48.23192" lon="6.88885">
        <ele>404.85</ele>
        <time>2018-02-19T15:44:50Z</time>
      </trkpt>
      <trkpt lat="48.23193" lon="6.8888">
        <ele>405.33</ele>
        <time>2018-02-19T15:44:53Z</time>
      </trkpt>
      <trkpt lat="48.23196" lon="6.88872">
        <ele>405.33</ele>
        <time>2018-02-19T15:44:58Z</time>
      </trkpt>
      <trkpt lat="48.23199" lon="6.88849">
        <ele>406.77</ele>
        <time>2018-02-19T15:45:13Z</time>
      </trkpt>
      <trkpt lat="48.232" lon="6.88838">
        <ele>408.22</ele>
        <time>2018-02-19T15:45:25Z</time>
      </trkpt>
      <trkpt lat="48.23198" lon="6.8883">
        <ele>408.7</ele>
        <time>2018-02-19T15:45:31Z</time>
      </trkpt>
      <trkpt lat="48.23196" lon="6.88827">
        <ele>408.7</ele>
        <time>2018-02-19T15:45:33Z</time>
      </trkpt>
      <trkpt lat="48.23191" lon="6.8882">
        <ele>407.74</ele>
        <time>2018-02-19T15:45:40Z</time>
      </trkpt>
      <trkpt lat="48.2319" lon="6.88815">
        <ele>407.74</ele>
        <time>2018-02-19T15:45:43Z</time>
      </trkpt>
      <trkpt lat="48.23188" lon="6.88809">
        <ele>409.66</ele>
        <time>2018-02-19T15:45:47Z</time>
      </trkpt>
      <trkpt lat="48.23181" lon="6.88793">
        <ele>411.58</ele>
        <time>2018-02-19T15:45:59Z</time>
      </trkpt>
      <trkpt lat="48.23177" lon="6.88786">
        <ele>411.58</ele>
        <time>2018-02-19T15:46:05Z</time>
      </trkpt>
      <trkpt lat="48.23176" lon="6.88783">
        <ele>412.06</ele>
        <time>2018-02-19T15:46:07Z</time>
      </trkpt>
      <trkpt lat="48.23169" lon="6.88766">
        <ele>413.02</ele>
        <time>2018-02-19T15:46:20Z</time>
      </trkpt>
      <trkpt lat="48.23162" lon="6.88752">
        <ele>415.91</ele>
        <time>2018-02-19T15:46:31Z</time>
      </trkpt>
      <trkpt lat="48.2316" lon="6.88749">
        <ele>415.91</ele>
        <time>2018-02-19T15:46:33Z</time>
      </trkpt>
      <trkpt lat="48.23158" lon="6.88741">
        <ele>415.91</ele>
        <time>2018-02-19T15:46:38Z</time>
      </trkpt>
      <trkpt lat="48.23155" lon="6.88727">
        <ele>415.91</ele>
        <time>2018-02-19T15:46:49Z</time>
      </trkpt>
      <trkpt lat="48.23154" lon="6.88721">
        <ele>415.91</ele>
        <time>2018-02-19T15:46:55Z</time>
      </trkpt>
      <trkpt lat="48.23153" lon="6.88718">
        <ele>415.91</ele>
        <time>2018-02-19T15:46:57Z</time>
      </trkpt>
      <trkpt lat="48.23151" lon="6.88699">
        <ele>418.79</ele>
        <time>2018-02-19T15:47:11Z</time>
      </trkpt>
      <trkpt lat="48.23148" lon="6.88684">
        <ele>420.71</ele>
        <time>2018-02-19T15:47:24Z</time>
      </trkpt>
      <trkpt lat="48.23146" lon="6.88677">
        <ele>421.68</ele>
        <time>2018-02-19T15:47:28Z</time>
      </trkpt>
      <trkpt lat="48.23145" lon="6.88659">
        <ele>424.56</ele>
        <time>2018-02-19T15:47:39Z</time>
      </trkpt>
      <trkpt lat="48.23144" lon="6.88657">
        <ele>424.56</ele>
        <time>2018-02-19T15:47:41Z</time>
      </trkpt>
      <trkpt lat="48.23139" lon="6.88638">
        <ele>427.44</ele>
        <time>2018-02-19T15:47:52Z</time>
      </trkpt>
      <trkpt lat="48.23137" lon="6.88624">
        <ele>427.44</ele>
        <time>2018-02-19T15:48:03Z</time>
      </trkpt>
      <trkpt lat="48.23135" lon="6.88612">
        <ele>427.44</ele>
        <time>2018-02-19T15:48:12Z</time>
      </trkpt>
      <trkpt lat="48.23132" lon="6.88597">
        <ele>425.52</ele>
        <time>2018-02-19T15:48:25Z</time>
      </trkpt>
      <trkpt lat="48.2313" lon="6.88585">
        <ele>428.89</ele>
        <time>2018-02-19T15:48:34Z</time>
      </trkpt>
      <trkpt lat="48.23129" lon="6.88571">
        <ele>429.37</ele>
        <time>2018-02-19T15:48:45Z</time>
      </trkpt>
      <trkpt lat="48.23124" lon="6.88556">
        <ele>428.4</ele>
        <time>2018-02-19T15:48:58Z</time>
      </trkpt>
      <trkpt lat="48.23124" lon="6.88546">
        <ele>429.37</ele>
        <time>2018-02-19T15:49:05Z</time>
      </trkpt>
      <trkpt lat="48.23121" lon="6.88529">
        <ele>431.77</ele>
        <time>2018-02-19T15:49:17Z</time>
      </trkpt>
      <trkpt lat="48.23122" lon="6.88524">
        <ele>432.25</ele>
        <time>2018-02-19T15:49:21Z</time>
      </trkpt>
      <trkpt lat="48.23123" lon="6.88511">
        <ele>434.65</ele>
        <time>2018-02-19T15:49:29Z</time>
      </trkpt>
      <trkpt lat="48.23121" lon="6.88499">
        <ele>436.58</ele>
        <time>2018-02-19T15:49:38Z</time>
      </trkpt>
      <trkpt lat="48.23119" lon="6.88489">
        <ele>433.69</ele>
        <time>2018-02-19T15:49:49Z</time>
      </trkpt>
      <trkpt lat="48.23117" lon="6.88483">
        <ele>432.25</ele>
        <time>2018-02-19T15:49:55Z</time>
      </trkpt>
      <trkpt lat="48.23119" lon="6.88473">
        <ele>432.73</ele>
        <time>2018-02-19T15:50:00Z</time>
      </trkpt>
      <trkpt lat="48.23117" lon="6.88458">
        <ele>434.17</ele>
        <time>2018-02-19T15:50:11Z</time>
      </trkpt>
      <trkpt lat="48.23117" lon="6.88443">
        <ele>436.1</ele>
        <time>2018-02-19T15:50:26Z</time>
      </trkpt>
      <trkpt lat="48.23116" lon="6.88433">
        <ele>440.42</ele>
        <time>2018-02-19T15:50:37Z</time>
      </trkpt>
      <trkpt lat="48.23107" lon="6.88421">
        <ele>443.31</ele>
        <time>2018-02-19T15:50:51Z</time>
      </trkpt>
      <trkpt lat="48.23109" lon="6.8841">
        <ele>447.15</ele>
        <time>2018-02-19T15:51:08Z</time>
      </trkpt>
      <trkpt lat="48.23108" lon="6.88409">
        <ele>448.11</ele>
        <time>2018-02-19T15:51:09Z</time>
      </trkpt>
      <trkpt lat="48.231" lon="6.88391">
        <ele>449.07</ele>
        <time>2018-02-19T15:51:22Z</time>
      </trkpt>
      <trkpt lat="48.23097" lon="6.88383">
        <ele>449.07</ele>
        <time>2018-02-19T15:51:29Z</time>
      </trkpt>
      <trkpt lat="48.23094" lon="6.88375">
        <ele>450.52</ele>
        <time>2018-02-19T15:51:35Z</time>
      </trkpt>
      <trkpt lat="48.23092" lon="6.88369">
        <ele>451.48</ele>
        <time>2018-02-19T15:51:40Z</time>
      </trkpt>
      <trkpt lat="48.23089" lon="6.88366">
        <ele>450.52</ele>
        <time>2018-02-19T15:51:43Z</time>
      </trkpt>
      <trkpt lat="48.23084" lon="6.88357">
        <ele>450.52</ele>
        <time>2018-02-19T15:51:53Z</time>
      </trkpt>
      <trkpt lat="48.23083" lon="6.88355">
        <ele>450.52</ele>
        <time>2018-02-19T15:51:55Z</time>
      </trkpt>
      <trkpt lat="48.23083" lon="6.88352">
        <ele>450.52</ele>
        <time>2018-02-19T15:51:57Z</time>
      </trkpt>
      <trkpt lat="48.23078" lon="6.88347">
        <ele>451</ele>
        <time>2018-02-19T15:52:02Z</time>
      </trkpt>
      <trkpt lat="48.23079" lon="6.88344">
        <ele>451.48</ele>
        <time>2018-02-19T15:52:04Z</time>
      </trkpt>
      <trkpt lat="48.23076" lon="6.88342">
        <ele>451</ele>
        <time>2018-02-19T15:52:06Z</time>
      </trkpt>
      <trkpt lat="48.23074" lon="6.88339">
        <ele>451</ele>
        <time>2018-02-19T15:52:09Z</time>
      </trkpt>
      <trkpt lat="48.23066" lon="6.8833">
        <ele>449.55</ele>
        <time>2018-02-19T15:52:18Z</time>
      </trkpt>
      <trkpt lat="48.23061" lon="6.88328">
        <ele>450.03</ele>
        <time>2018-02-19T15:52:22Z</time>
      </trkpt>
      <trkpt lat="48.23056" lon="6.88321">
        <ele>451</ele>
        <time>2018-02-19T15:52:32Z</time>
      </trkpt>
      <trkpt lat="48.23052" lon="6.88318">
        <ele>450.52</ele>
        <time>2018-02-19T15:52:37Z</time>
      </trkpt>
      <trkpt lat="48.23044" lon="6.8831">
        <ele>451</ele>
        <time>2018-02-19T15:52:46Z</time>
      </trkpt>
      <trkpt lat="48.23038" lon="6.88302">
        <ele>453.88</ele>
        <time>2018-02-19T15:52:52Z</time>
      </trkpt>
      <trkpt lat="48.23031" lon="6.88294">
        <ele>453.4</ele>
        <time>2018-02-19T15:52:58Z</time>
      </trkpt>
      <trkpt lat="48.23028" lon="6.88293">
        <ele>453.4</ele>
        <time>2018-02-19T15:53:01Z</time>
      </trkpt>
      <trkpt lat="48.23023" lon="6.88287">
        <ele>455.32</ele>
        <time>2018-02-19T15:53:06Z</time>
      </trkpt>
      <trkpt lat="48.23021" lon="6.88285">
        <ele>455.8</ele>
        <time>2018-02-19T15:53:08Z</time>
      </trkpt>
      <trkpt lat="48.23019" lon="6.88283">
        <ele>455.32</ele>
        <time>2018-02-19T15:53:10Z</time>
      </trkpt>
      <trkpt lat="48.23016" lon="6.88281">
        <ele>454.84</ele>
        <time>2018-02-19T15:53:13Z</time>
      </trkpt>
      <trkpt lat="48.23011" lon="6.88274">
        <ele>455.8</ele>
        <time>2018-02-19T15:53:26Z</time>
      </trkpt>
      <trkpt lat="48.23011" lon="6.88273">
        <ele>455.8</ele>
        <time>2018-02-19T15:53:27Z</time>
      </trkpt>
      <trkpt lat="48.23007" lon="6.88267">
        <ele>457.24</ele>
        <time>2018-02-19T15:53:39Z</time>
      </trkpt>
      <trkpt lat="48.23002" lon="6.88266">
        <ele>458.21</ele>
        <time>2018-02-19T15:53:49Z</time>
      </trkpt>
      <trkpt lat="48.23001" lon="6.88266">
        <ele>458.69</ele>
        <time>2018-02-19T15:54:13Z</time>
      </trkpt>
      <trkpt lat="48.23001" lon="6.88264">
        <ele>455.8</ele>
        <time>2018-02-19T15:54:42Z</time>
      </trkpt>
      <trkpt lat="48.23002" lon="6.88263">
        <ele>454.36</ele>
        <time>2018-02-19T15:55:05Z</time>
      </trkpt>
      <trkpt lat="48.23001" lon="6.8826">
        <ele>454.84</ele>
        <time>2018-02-19T15:55:15Z</time>
      </trkpt>
      <trkpt lat="48.23001" lon="6.88264">
        <ele>455.8</ele>
        <time>2018-02-19T15:55:35Z</time>
      </trkpt>
      <trkpt lat="48.23001" lon="6.88267">
        <ele>455.8</ele>
        <time>2018-02-19T15:55:52Z</time>
      </trkpt>
      <trkpt lat="48.22998" lon="6.88264">
        <ele>456.28</ele>
        <time>2018-02-19T15:56:11Z</time>
      </trkpt>
      <trkpt lat="48.22994" lon="6.88256">
        <ele>457.72</ele>
        <time>2018-02-19T15:56:22Z</time>
      </trkpt>
      <trkpt lat="48.22994" lon="6.88255">
        <ele>459.17</ele>
        <time>2018-02-19T15:56:52Z</time>
      </trkpt>
      <trkpt lat="48.22998" lon="6.88252">
        <ele>456.76</ele>
        <time>2018-02-19T15:57:20Z</time>
      </trkpt>
      <trkpt lat="48.22995" lon="6.88254">
        <ele>455.32</ele>
        <time>2018-02-19T15:57:38Z</time>
      </trkpt>
      <trkpt lat="48.22998" lon="6.88251">
        <ele>457.72</ele>
        <time>2018-02-19T15:57:57Z</time>
      </trkpt>
      <trkpt lat="48.22993" lon="6.88247">
        <ele>456.76</ele>
        <time>2018-02-19T15:58:08Z</time>
      </trkpt>
      <trkpt lat="48.22991" lon="6.88245">
        <ele>456.76</ele>
        <time>2018-02-19T15:58:10Z</time>
      </trkpt>
      <trkpt lat="48.22992" lon="6.88239">
        <ele>456.28</ele>
        <time>2018-02-19T15:58:14Z</time>
      </trkpt>
      <trkpt lat="48.22989" lon="6.88222">
        <ele>453.88</ele>
        <time>2018-02-19T15:58:26Z</time>
      </trkpt>
      <trkpt lat="48.22987" lon="6.88218">
        <ele>454.84</ele>
        <time>2018-02-19T15:58:29Z</time>
      </trkpt>
      <trkpt lat="48.22986" lon="6.882">
        <ele>459.65</ele>
        <time>2018-02-19T15:58:41Z</time>
      </trkpt>
      <trkpt lat="48.22986" lon="6.88196">
        <ele>460.61</ele>
        <time>2018-02-19T15:58:44Z</time>
      </trkpt>
      <trkpt lat="48.22988" lon="6.88183">
        <ele>462.05</ele>
        <time>2018-02-19T15:58:53Z</time>
      </trkpt>
      <trkpt lat="48.22986" lon="6.88178">
        <ele>461.57</ele>
        <time>2018-02-19T15:58:56Z</time>
      </trkpt>
      <trkpt lat="48.22988" lon="6.88175">
        <ele>461.57</ele>
        <time>2018-02-19T15:58:58Z</time>
      </trkpt>
      <trkpt lat="48.22991" lon="6.88164">
        <ele>458.69</ele>
        <time>2018-02-19T15:59:08Z</time>
      </trkpt>
      <trkpt lat="48.22991" lon="6.88161">
        <ele>457.72</ele>
        <time>2018-02-19T15:59:12Z</time>
      </trkpt>
      <trkpt lat="48.23001" lon="6.88154">
        <ele>458.69</ele>
        <time>2018-02-19T15:59:22Z</time>
      </trkpt>
      <trkpt lat="48.23013" lon="6.8815">
        <ele>460.61</ele>
        <time>2018-02-19T15:59:32Z</time>
      </trkpt>
      <trkpt lat="48.23018" lon="6.88148">
        <ele>460.61</ele>
        <time>2018-02-19T15:59:36Z</time>
      </trkpt>
      <trkpt lat="48.2303" lon="6.88143">
        <ele>460.13</ele>
        <time>2018-02-19T15:59:47Z</time>
      </trkpt>
      <trkpt lat="48.23038" lon="6.88141">
        <ele>457.72</ele>
        <time>2018-02-19T15:59:56Z</time>
      </trkpt>
      <trkpt lat="48.23051" lon="6.88131">
        <ele>452.44</ele>
        <time>2018-02-19T16:00:11Z</time>
      </trkpt>
      <trkpt lat="48.23067" lon="6.88113">
        <ele>455.32</ele>
        <time>2018-02-19T16:00:29Z</time>
      </trkpt>
      <trkpt lat="48.23075" lon="6.88091">
        <ele>456.76</ele>
        <time>2018-02-19T16:00:45Z</time>
      </trkpt>
      <trkpt lat="48.23075" lon="6.8808">
        <ele>455.8</ele>
        <time>2018-02-19T16:00:51Z</time>
      </trkpt>
      <trkpt lat="48.23073" lon="6.88068">
        <ele>455.8</ele>
        <time>2018-02-19T16:00:57Z</time>
      </trkpt>
      <trkpt lat="48.2307" lon="6.88035">
        <ele>451.96</ele>
        <time>2018-02-19T16:01:17Z</time>
      </trkpt>
      <trkpt lat="48.2307" lon="6.88031">
        <ele>451.48</ele>
        <time>2018-02-19T16:01:19Z</time>
      </trkpt>
      <trkpt lat="48.23074" lon="6.88011">
        <ele>451.96</ele>
        <time>2018-02-19T16:01:28Z</time>
      </trkpt>
      <trkpt lat="48.23076" lon="6.88004">
        <ele>452.44</ele>
        <time>2018-02-19T16:01:33Z</time>
      </trkpt>
      <trkpt lat="48.23086" lon="6.87996">
        <ele>452.44</ele>
        <time>2018-02-19T16:01:40Z</time>
      </trkpt>
      <trkpt lat="48.23088" lon="6.8799">
        <ele>453.4</ele>
        <time>2018-02-19T16:01:44Z</time>
      </trkpt>
      <trkpt lat="48.23091" lon="6.87988">
        <ele>453.88</ele>
        <time>2018-02-19T16:01:46Z</time>
      </trkpt>
      <trkpt lat="48.23098" lon="6.87979">
        <ele>452.92</ele>
        <time>2018-02-19T16:01:53Z</time>
      </trkpt>
      <trkpt lat="48.23106" lon="6.87962">
        <ele>449.07</ele>
        <time>2018-02-19T16:02:04Z</time>
      </trkpt>
      <trkpt lat="48.23109" lon="6.87958">
        <ele>449.07</ele>
        <time>2018-02-19T16:02:07Z</time>
      </trkpt>
      <trkpt lat="48.23111" lon="6.87956">
        <ele>448.59</ele>
        <time>2018-02-19T16:02:09Z</time>
      </trkpt>
      <trkpt lat="48.23113" lon="6.87952">
        <ele>448.11</ele>
        <time>2018-02-19T16:02:12Z</time>
      </trkpt>
      <trkpt lat="48.23127" lon="6.87935">
        <ele>447.15</ele>
        <time>2018-02-19T16:02:26Z</time>
      </trkpt>
      <trkpt lat="48.23146" lon="6.87919">
        <ele>446.19</ele>
        <time>2018-02-19T16:02:42Z</time>
      </trkpt>
      <trkpt lat="48.23153" lon="6.87898">
        <ele>442.82</ele>
        <time>2018-02-19T16:02:58Z</time>
      </trkpt>
      <trkpt lat="48.23152" lon="6.87894">
        <ele>442.34</ele>
        <time>2018-02-19T16:03:01Z</time>
      </trkpt>
      <trkpt lat="48.23147" lon="6.87876">
        <ele>438.98</ele>
        <time>2018-02-19T16:03:12Z</time>
      </trkpt>
      <trkpt lat="48.23147" lon="6.87856">
        <ele>436.58</ele>
        <time>2018-02-19T16:03:22Z</time>
      </trkpt>
      <trkpt lat="48.23146" lon="6.87845">
        <ele>437.06</ele>
        <time>2018-02-19T16:03:27Z</time>
      </trkpt>
      <trkpt lat="48.23147" lon="6.87833">
        <ele>434.65</ele>
        <time>2018-02-19T16:03:34Z</time>
      </trkpt>
      <trkpt lat="48.23153" lon="6.87827">
        <ele>434.65</ele>
        <time>2018-02-19T16:03:39Z</time>
      </trkpt>
      <trkpt lat="48.23159" lon="6.87826">
        <ele>433.21</ele>
        <time>2018-02-19T16:03:45Z</time>
      </trkpt>
      <trkpt lat="48.23162" lon="6.87825">
        <ele>433.21</ele>
        <time>2018-02-19T16:03:47Z</time>
      </trkpt>
      <trkpt lat="48.23164" lon="6.87824">
        <ele>433.69</ele>
        <time>2018-02-19T16:03:49Z</time>
      </trkpt>
      <trkpt lat="48.23179" lon="6.87825">
        <ele>434.65</ele>
        <time>2018-02-19T16:04:01Z</time>
      </trkpt>
      <trkpt lat="48.23183" lon="6.87826">
        <ele>434.65</ele>
        <time>2018-02-19T16:04:04Z</time>
      </trkpt>
      <trkpt lat="48.23194" lon="6.87826">
        <ele>435.61</ele>
        <time>2018-02-19T16:04:12Z</time>
      </trkpt>
      <trkpt lat="48.23211" lon="6.87824">
        <ele>433.21</ele>
        <time>2018-02-19T16:04:25Z</time>
      </trkpt>
      <trkpt lat="48.2322" lon="6.87822">
        <ele>429.85</ele>
        <time>2018-02-19T16:04:35Z</time>
      </trkpt>
      <trkpt lat="48.23234" lon="6.87822">
        <ele>427.44</ele>
        <time>2018-02-19T16:04:45Z</time>
      </trkpt>
      <trkpt lat="48.23248" lon="6.87821">
        <ele>426.96</ele>
        <time>2018-02-19T16:04:55Z</time>
      </trkpt>
      <trkpt lat="48.23257" lon="6.87822">
        <ele>428.89</ele>
        <time>2018-02-19T16:04:59Z</time>
      </trkpt>
      <trkpt lat="48.23277" lon="6.87826">
        <ele>429.37</ele>
        <time>2018-02-19T16:05:11Z</time>
      </trkpt>
      <trkpt lat="48.23295" lon="6.87829">
        <ele>429.85</ele>
        <time>2018-02-19T16:05:23Z</time>
      </trkpt>
      <trkpt lat="48.23304" lon="6.87844">
        <ele>430.81</ele>
        <time>2018-02-19T16:05:34Z</time>
      </trkpt>
      <trkpt lat="48.23306" lon="6.87852">
        <ele>433.69</ele>
        <time>2018-02-19T16:05:51Z</time>
      </trkpt>
      <trkpt lat="48.23306" lon="6.87852">
        <ele>432.73</ele>
        <time>2018-02-19T16:06:22Z</time>
      </trkpt>
      <trkpt lat="48.23304" lon="6.87848">
        <ele>429.85</ele>
        <time>2018-02-19T16:06:40Z</time>
      </trkpt>
      <trkpt lat="48.23305" lon="6.87835">
        <ele>428.4</ele>
        <time>2018-02-19T16:06:47Z</time>
      </trkpt>
      <trkpt lat="48.23324" lon="6.8783">
        <ele>428.89</ele>
        <time>2018-02-19T16:07:03Z</time>
      </trkpt>
      <trkpt lat="48.23342" lon="6.87834">
        <ele>429.85</ele>
        <time>2018-02-19T16:07:17Z</time>
      </trkpt>
      <trkpt lat="48.23359" lon="6.87838">
        <ele>427.44</ele>
        <time>2018-02-19T16:07:32Z</time>
      </trkpt>
      <trkpt lat="48.23375" lon="6.8784">
        <ele>422.64</ele>
        <time>2018-02-19T16:07:46Z</time>
      </trkpt>
      <trkpt lat="48.23386" lon="6.87842">
        <ele>419.75</ele>
        <time>2018-02-19T16:07:59Z</time>
      </trkpt>
      <trkpt lat="48.23395" lon="6.87843">
        <ele>415.91</ele>
        <time>2018-02-19T16:08:12Z</time>
      </trkpt>
      <trkpt lat="48.23414" lon="6.8785">
        <ele>413.02</ele>
        <time>2018-02-19T16:08:22Z</time>
      </trkpt>
      <trkpt lat="48.23431" lon="6.87863">
        <ele>417.83</ele>
        <time>2018-02-19T16:08:35Z</time>
      </trkpt>
      <trkpt lat="48.23446" lon="6.87885">
        <ele>419.27</ele>
        <time>2018-02-19T16:08:50Z</time>
      </trkpt>
      <trkpt lat="48.23446" lon="6.87887">
        <ele>419.27</ele>
        <time>2018-02-19T16:08:51Z</time>
      </trkpt>
      <trkpt lat="48.23451" lon="6.87898">
        <ele>419.75</ele>
        <time>2018-02-19T16:08:57Z</time>
      </trkpt>
      <trkpt lat="48.23466" lon="6.87917">
        <ele>418.31</ele>
        <time>2018-02-19T16:09:12Z</time>
      </trkpt>
      <trkpt lat="48.23475" lon="6.87928">
        <ele>416.87</ele>
        <time>2018-02-19T16:09:23Z</time>
      </trkpt>
      <trkpt lat="48.23479" lon="6.87924">
        <ele>418.31</ele>
        <time>2018-02-19T16:09:34Z</time>
      </trkpt>
    </trkseg>
  </trk>
</gpx>